TUI9WT EDDF-GVBA
Flight info
| Callsign | TUI9WT |
|---|---|
| Flight time | 6h 27m |
| Altitude | 36000 |
| Route | SOBRA1F/25C SOBRA Y180 DIK UN857 TOLVU/N0454F350 DCT RAPOR DCT GIMER DCT AHVEC UN857 DISAK DCT ARKIP DCT ARNAV DCT LMG DCT UVELI DCT OSMOB DCT VAVIX DCT BTZ/N0452F370 DCT URUNA DCT SSN DCT VRA DCT NEA DCT ZANKO DCT RIDAV DCT ADINO DCT ELVAR DCT DUZOP DCT BAROK UN873 SAMAR DCT YUSME DCT LIMAL/N0455F380 N873 IPERA DCT DIMKI DIMKI1P |
| Aircraft | B38M/M-SDE1FGHILORVWXY/HB1 |
Departure
| Time | 2026-04-17 12:51 |
|---|---|
| Airport | Frankfurt Main Airport (EDDF) |
Arrival
| Time | 2026-04-17 19:19 |
|---|---|
| Airport | Aristides Pereira International Airport (GVBA) |
| Time | Latitude | Longitude | Altitude | Speed | Heading |
|---|---|---|---|---|---|
| 2026-04-17 12:25 | 50.05025 | 8.58533 | 362 ft | 0 kts | 340° |
| 2026-04-17 12:43 | 50.05023 | 8.58534 | 362 ft | 2 kts | 340° |
| 2026-04-17 12:43 | 50.05006 | 8.58545 | 367 ft | 0 kts | 330° |
| 2026-04-17 12:44 | 50.04996 | 8.58555 | 363 ft | 1 kts | 330° |
| 2026-04-17 12:44 | 50.04986 | 8.58563 | 362 ft | 2 kts | 332° |
| 2026-04-17 12:44 | 50.04977 | 8.58570 | 362 ft | 3 kts | 335° |
| 2026-04-17 12:44 | 50.04959 | 8.58573 | 362 ft | 6 kts | 20° |
| 2026-04-17 12:45 | 50.04945 | 8.58559 | 362 ft | 0 kts | 68° |
| 2026-04-17 12:48 | 50.04951 | 8.58585 | 365 ft | 9 kts | 76° |
| 2026-04-17 12:48 | 50.04896 | 8.58685 | 363 ft | 16 kts | 158° |
| 2026-04-17 12:48 | 50.04795 | 8.58736 | 370 ft | 14 kts | 159° |
| 2026-04-17 12:49 | 50.04707 | 8.58767 | 371 ft | 11 kts | 182° |
| 2026-04-17 12:49 | 50.04696 | 8.58766 | 372 ft | 0 kts | 184° |
| 2026-04-17 12:50 | 50.04660 | 8.58760 | 373 ft | 11 kts | 186° |
| 2026-04-17 12:50 | 50.04559 | 8.58687 | 373 ft | 21 kts | 226° |
| 2026-04-17 12:50 | 50.04463 | 8.58491 | 372 ft | 24 kts | 249° |
| 2026-04-17 12:50 | 50.04370 | 8.58115 | 374 ft | 71 kts | 249° |
| 2026-04-17 12:51 | 50.04105 | 8.56986 | 367 ft | 148 kts | 249° |
| 2026-04-17 12:51 | 50.03709 | 8.55298 | 411 ft | 161 kts | 250° |
| 2026-04-17 12:51 | 50.03305 | 8.53556 | 636 ft | 189 kts | 251° |
| 2026-04-17 12:51 | 50.02847 | 8.51527 | 1391 ft | 203 kts | 252° |
| 2026-04-17 12:52 | 50.02163 | 8.49639 | 2445 ft | 210 kts | 224° |
| 2026-04-17 12:52 | 50.00840 | 8.48475 | 3073 ft | 229 kts | 192° |
| 2026-04-17 12:52 | 49.99287 | 8.48407 | 4246 ft | 223 kts | 177° |
| 2026-04-17 12:52 | 49.97738 | 8.48084 | 5026 ft | 231 kts | 200° |
| 2026-04-17 12:53 | 49.96222 | 8.47190 | 5142 ft | 234 kts | 200° |
| 2026-04-17 12:53 | 49.94699 | 8.46325 | 5049 ft | 232 kts | 200° |
| 2026-04-17 12:53 | 49.93228 | 8.45321 | 4967 ft | 241 kts | 216° |
| 2026-04-17 12:53 | 49.91968 | 8.43520 | 4939 ft | 254 kts | 223° |
| 2026-04-17 12:54 | 49.90669 | 8.41618 | 4965 ft | 260 kts | 223° |
| 2026-04-17 12:54 | 49.89337 | 8.39659 | 5129 ft | 267 kts | 223° |
| 2026-04-17 12:54 | 49.88003 | 8.37685 | 6155 ft | 264 kts | 223° |
| 2026-04-17 12:54 | 49.86660 | 8.35693 | 7141 ft | 270 kts | 223° |
| 2026-04-17 12:55 | 49.85297 | 8.33667 | 8070 ft | 274 kts | 223° |
| 2026-04-17 12:55 | 49.83911 | 8.31605 | 9008 ft | 278 kts | 224° |
| 2026-04-17 12:55 | 49.82506 | 8.29518 | 9933 ft | 283 kts | 224° |
| 2026-04-17 12:55 | 49.81063 | 8.27372 | 10675 ft | 293 kts | 224° |
| 2026-04-17 12:56 | 49.79825 | 8.24780 | 11114 ft | 311 kts | 246° |
| 2026-04-17 12:56 | 49.79344 | 8.21482 | 11514 ft | 328 kts | 270° |
| 2026-04-17 12:56 | 49.79724 | 8.17931 | 12064 ft | 340 kts | 284° |
| 2026-04-17 12:56 | 49.80304 | 8.14321 | 12692 ft | 349 kts | 283° |
| 2026-04-17 12:57 | 49.80883 | 8.10646 | 13142 ft | 353 kts | 283° |
| 2026-04-17 12:57 | 49.81464 | 8.06960 | 13201 ft | 351 kts | 283° |
| 2026-04-17 12:57 | 49.82042 | 8.03289 | 13200 ft | 351 kts | 283° |
| 2026-04-17 12:57 | 49.82624 | 7.99602 | 13408 ft | 353 kts | 283° |
| 2026-04-17 12:58 | 49.83205 | 7.95917 | 14260 ft | 353 kts | 283° |
| 2026-04-17 12:58 | 49.83793 | 7.92203 | 14933 ft | 357 kts | 283° |
| 2026-04-17 12:58 | 49.84391 | 7.88443 | 15621 ft | 360 kts | 283° |
| 2026-04-17 12:58 | 49.84995 | 7.84661 | 16285 ft | 364 kts | 283° |
| 2026-04-17 12:59 | 49.85608 | 7.80837 | 16955 ft | 367 kts | 283° |
| 2026-04-17 12:59 | 49.86230 | 7.76972 | 17589 ft | 371 kts | 283° |
| 2026-04-17 12:59 | 49.86860 | 7.73072 | 18228 ft | 374 kts | 283° |
| 2026-04-17 12:59 | 49.87499 | 7.69129 | 18802 ft | 378 kts | 283° |
| 2026-04-17 13:00 | 49.88140 | 7.65165 | 19377 ft | 380 kts | 283° |
| 2026-04-17 13:00 | 49.88775 | 7.61228 | 19924 ft | 383 kts | 283° |
| 2026-04-17 13:00 | 49.89433 | 7.57145 | 20473 ft | 386 kts | 283° |
| 2026-04-17 13:00 | 49.90076 | 7.53140 | 21021 ft | 388 kts | 283° |
| 2026-04-17 13:01 | 49.90728 | 7.49056 | 21559 ft | 391 kts | 283° |
| 2026-04-17 13:01 | 49.91383 | 7.44947 | 22095 ft | 394 kts | 283° |
| 2026-04-17 13:01 | 49.92041 | 7.40809 | 22616 ft | 396 kts | 283° |
| 2026-04-17 13:01 | 49.92703 | 7.36639 | 23140 ft | 399 kts | 283° |
| 2026-04-17 13:02 | 49.93370 | 7.32440 | 23655 ft | 402 kts | 283° |
| 2026-04-17 13:02 | 49.94041 | 7.28212 | 24080 ft | 405 kts | 283° |
| 2026-04-17 13:02 | 49.94712 | 7.23952 | 24507 ft | 407 kts | 283° |
| 2026-04-17 13:02 | 49.95381 | 7.19663 | 24928 ft | 409 kts | 283° |
| 2026-04-17 13:03 | 49.96038 | 7.15407 | 25338 ft | 412 kts | 283° |
| 2026-04-17 13:03 | 49.96702 | 7.11078 | 25744 ft | 414 kts | 283° |
| 2026-04-17 13:03 | 49.97367 | 7.06707 | 26149 ft | 416 kts | 283° |
| 2026-04-17 13:03 | 49.98028 | 7.02323 | 26549 ft | 418 kts | 283° |
| 2026-04-17 13:04 | 49.98688 | 6.97908 | 26943 ft | 420 kts | 283° |
| 2026-04-17 13:04 | 49.99349 | 6.93455 | 27321 ft | 422 kts | 283° |
| 2026-04-17 13:04 | 50.00005 | 6.88996 | 27689 ft | 425 kts | 283° |
| 2026-04-17 13:04 | 50.00661 | 6.84510 | 28061 ft | 426 kts | 283° |
| 2026-04-17 13:05 | 50.01316 | 6.79999 | 28428 ft | 429 kts | 283° |
| 2026-04-17 13:05 | 50.01972 | 6.75474 | 28778 ft | 431 kts | 283° |
| 2026-04-17 13:05 | 50.02619 | 6.70968 | 29127 ft | 433 kts | 283° |
| 2026-04-17 13:05 | 50.03273 | 6.66388 | 29487 ft | 435 kts | 283° |
| 2026-04-17 13:06 | 50.03926 | 6.61794 | 29835 ft | 437 kts | 283° |
| 2026-04-17 13:06 | 50.04580 | 6.57164 | 30187 ft | 439 kts | 283° |
| 2026-04-17 13:06 | 50.05236 | 6.52519 | 30500 ft | 440 kts | 283° |
| 2026-04-17 13:06 | 50.05890 | 6.47852 | 30808 ft | 442 kts | 283° |
| 2026-04-17 13:07 | 50.06543 | 6.43182 | 31219 ft | 440 kts | 283° |
| 2026-04-17 13:07 | 50.07187 | 6.38534 | 31634 ft | 439 kts | 283° |
| 2026-04-17 13:07 | 50.07576 | 6.33847 | 32032 ft | 439 kts | 270° |
| 2026-04-17 13:07 | 50.07113 | 6.29156 | 32460 ft | 440 kts | 256° |
| 2026-04-17 13:08 | 50.06140 | 6.24633 | 32795 ft | 441 kts | 253° |
| 2026-04-17 13:08 | 50.05108 | 6.20134 | 33138 ft | 441 kts | 253° |
| 2026-04-17 13:08 | 50.04072 | 6.15656 | 33507 ft | 440 kts | 253° |
| 2026-04-17 13:08 | 50.03031 | 6.11181 | 33860 ft | 439 kts | 253° |
| 2026-04-17 13:09 | 50.01988 | 6.06724 | 34220 ft | 438 kts | 253° |
| 2026-04-17 13:09 | 50.00945 | 6.02283 | 34528 ft | 437 kts | 253° |
| 2026-04-17 13:09 | 50.00255 | 5.99343 | 34720 ft | 437 kts | 253° |
| 2026-04-17 13:09 | 49.99209 | 5.94899 | 34994 ft | 437 kts | 252° |
| 2026-04-17 13:10 | 49.98167 | 5.90466 | 35283 ft | 436 kts | 253° |
| 2026-04-17 13:10 | 49.97127 | 5.86037 | 35548 ft | 436 kts | 252° |
| 2026-04-17 13:10 | 49.96085 | 5.81611 | 35815 ft | 435 kts | 252° |
| 2026-04-17 13:10 | 49.95046 | 5.77197 | 36077 ft | 435 kts | 252° |
| 2026-04-17 13:11 | 49.93785 | 5.72912 | 36235 ft | 438 kts | 244° |
| 2026-04-17 13:11 | 49.91015 | 5.64511 | 36226 ft | 435 kts | 246° |
| 2026-04-17 13:12 | 49.88332 | 5.56080 | 36217 ft | 436 kts | 247° |
| 2026-04-17 13:12 | 49.84339 | 5.43486 | 36215 ft | 436 kts | 246° |
| 2026-04-17 13:13 | 49.81659 | 5.35063 | 36218 ft | 436 kts | 246° |
| 2026-04-17 13:13 | 49.78970 | 5.26642 | 36216 ft | 436 kts | 246° |
| 2026-04-17 13:14 | 49.76274 | 5.18228 | 36216 ft | 436 kts | 246° |
| 2026-04-17 13:14 | 49.73575 | 5.09827 | 36210 ft | 436 kts | 246° |
| 2026-04-17 13:15 | 49.70867 | 5.01431 | 36217 ft | 436 kts | 246° |
| 2026-04-17 13:15 | 49.68153 | 4.93045 | 36218 ft | 436 kts | 246° |
| 2026-04-17 13:16 | 49.65434 | 4.84671 | 36216 ft | 436 kts | 246° |
| 2026-04-17 13:16 | 49.62728 | 4.76361 | 36219 ft | 436 kts | 245° |
| 2026-04-17 13:17 | 49.59997 | 4.68007 | 36221 ft | 436 kts | 245° |
| 2026-04-17 13:17 | 49.57259 | 4.59657 | 36220 ft | 437 kts | 245° |
| 2026-04-17 13:18 | 49.54512 | 4.51308 | 36222 ft | 437 kts | 245° |
| 2026-04-17 13:18 | 49.51761 | 4.42973 | 36225 ft | 437 kts | 245° |
| 2026-04-17 13:19 | 49.49003 | 4.34646 | 36221 ft | 437 kts | 245° |
| 2026-04-17 13:19 | 49.46239 | 4.26328 | 36222 ft | 437 kts | 245° |
| 2026-04-17 13:20 | 49.43469 | 4.18019 | 36214 ft | 437 kts | 245° |
| 2026-04-17 13:20 | 49.40695 | 4.09725 | 36215 ft | 437 kts | 244° |
| 2026-04-17 13:21 | 49.37913 | 4.01436 | 36214 ft | 436 kts | 244° |
| 2026-04-17 13:21 | 49.34814 | 3.93423 | 36220 ft | 438 kts | 239° |
| 2026-04-17 13:22 | 49.31453 | 3.85627 | 36213 ft | 438 kts | 238° |
| 2026-04-17 13:22 | 49.28076 | 3.77862 | 36215 ft | 437 kts | 238° |
| 2026-04-17 13:23 | 49.24714 | 3.70156 | 36213 ft | 437 kts | 238° |
| 2026-04-17 13:23 | 49.21334 | 3.62431 | 36213 ft | 437 kts | 238° |
| 2026-04-17 13:24 | 49.17946 | 3.54710 | 36212 ft | 437 kts | 238° |
| 2026-04-17 13:24 | 49.14557 | 3.47010 | 36219 ft | 437 kts | 237° |
| 2026-04-17 13:25 | 49.11163 | 3.39320 | 36216 ft | 436 kts | 237° |
| 2026-04-17 13:25 | 49.07763 | 3.31640 | 36209 ft | 436 kts | 237° |
| 2026-04-17 13:26 | 49.04363 | 3.23979 | 36210 ft | 436 kts | 237° |
| 2026-04-17 13:26 | 49.00959 | 3.16332 | 36208 ft | 436 kts | 237° |
| 2026-04-17 13:27 | 48.97552 | 3.08702 | 36212 ft | 435 kts | 237° |
| 2026-04-17 13:27 | 48.94142 | 3.01084 | 36209 ft | 435 kts | 237° |
| 2026-04-17 13:28 | 48.90751 | 2.93533 | 36210 ft | 435 kts | 237° |
| 2026-04-17 13:28 | 48.87333 | 2.85940 | 36209 ft | 435 kts | 237° |
| 2026-04-17 13:29 | 48.83916 | 2.78367 | 36211 ft | 434 kts | 237° |
| 2026-04-17 13:29 | 48.80492 | 2.70808 | 36209 ft | 434 kts | 237° |
| 2026-04-17 13:30 | 48.77073 | 2.63281 | 36214 ft | 433 kts | 237° |
| 2026-04-17 13:30 | 48.73653 | 2.55770 | 36212 ft | 433 kts | 236° |
| 2026-04-17 13:31 | 48.70224 | 2.48261 | 36209 ft | 432 kts | 236° |
| 2026-04-17 13:31 | 48.66803 | 2.40790 | 36213 ft | 432 kts | 236° |
| 2026-04-17 13:32 | 48.63399 | 2.33376 | 36210 ft | 432 kts | 236° |
| 2026-04-17 13:32 | 48.59967 | 2.25920 | 36211 ft | 431 kts | 236° |
| 2026-04-17 13:33 | 48.58081 | 2.22403 | 36198 ft | 432 kts | 224° |
| 2026-04-17 13:33 | 48.55639 | 2.19769 | 36208 ft | 434 kts | 208° |
| 2026-04-17 13:33 | 48.52799 | 2.18189 | 36206 ft | 438 kts | 196° |
| 2026-04-17 13:33 | 48.49826 | 2.17077 | 36205 ft | 441 kts | 196° |
| 2026-04-17 13:34 | 48.43837 | 2.15012 | 36194 ft | 441 kts | 195° |
| 2026-04-17 13:34 | 48.37829 | 2.13051 | 36204 ft | 441 kts | 194° |
| 2026-04-17 13:35 | 48.31861 | 2.11132 | 36194 ft | 441 kts | 194° |
| 2026-04-17 13:35 | 48.25747 | 2.10680 | 36209 ft | 446 kts | 174° |
| 2026-04-17 13:36 | 48.19573 | 2.11879 | 36197 ft | 449 kts | 175° |
| 2026-04-17 13:36 | 48.13369 | 2.12992 | 36191 ft | 446 kts | 184° |
| 2026-04-17 13:37 | 48.07246 | 2.11948 | 36194 ft | 444 kts | 189° |
| 2026-04-17 13:37 | 48.02148 | 2.11012 | 36203 ft | 444 kts | 189° |
| 2026-04-17 13:38 | 47.96087 | 2.09859 | 36209 ft | 444 kts | 189° |
| 2026-04-17 13:38 | 47.89944 | 2.08686 | 36214 ft | 444 kts | 189° |
| 2026-04-17 13:39 | 47.83814 | 2.07519 | 36208 ft | 444 kts | 189° |
| 2026-04-17 13:39 | 47.77666 | 2.06351 | 36211 ft | 445 kts | 189° |
| 2026-04-17 13:40 | 47.71569 | 2.05196 | 36202 ft | 445 kts | 189° |
| 2026-04-17 13:40 | 47.65428 | 2.04034 | 36193 ft | 445 kts | 190° |
| 2026-04-17 13:41 | 47.62426 | 2.03027 | 36167 ft | 439 kts | 204° |
| 2026-04-17 13:41 | 47.59580 | 2.01365 | 36192 ft | 441 kts | 203° |
| 2026-04-17 13:41 | 47.53850 | 1.98119 | 36192 ft | 441 kts | 204° |
| 2026-04-17 13:42 | 47.48136 | 1.94822 | 36181 ft | 440 kts | 204° |
| 2026-04-17 13:42 | 47.42431 | 1.91528 | 36184 ft | 440 kts | 204° |
| 2026-04-17 13:43 | 47.36725 | 1.88240 | 36183 ft | 440 kts | 204° |
| 2026-04-17 13:43 | 47.31023 | 1.84962 | 36181 ft | 440 kts | 204° |
| 2026-04-17 13:44 | 47.25343 | 1.81704 | 36182 ft | 440 kts | 204° |
| 2026-04-17 13:44 | 47.19633 | 1.78451 | 36185 ft | 440 kts | 204° |
| 2026-04-17 13:45 | 47.13920 | 1.75229 | 36184 ft | 439 kts | 204° |
| 2026-04-17 13:45 | 47.08208 | 1.72012 | 36200 ft | 439 kts | 204° |
| 2026-04-17 13:46 | 47.02533 | 1.68824 | 36203 ft | 439 kts | 204° |
| 2026-04-17 13:46 | 46.96817 | 1.65621 | 36211 ft | 439 kts | 204° |
| 2026-04-17 13:47 | 46.91108 | 1.62428 | 36210 ft | 439 kts | 204° |
| 2026-04-17 13:47 | 46.85387 | 1.59236 | 36207 ft | 439 kts | 204° |
| 2026-04-17 13:48 | 46.79676 | 1.56057 | 36206 ft | 439 kts | 204° |
| 2026-04-17 13:48 | 46.73964 | 1.52884 | 36202 ft | 439 kts | 204° |
| 2026-04-17 13:49 | 46.68259 | 1.49723 | 36195 ft | 439 kts | 204° |
| 2026-04-17 13:49 | 46.62579 | 1.46582 | 36188 ft | 439 kts | 204° |
| 2026-04-17 13:50 | 46.56862 | 1.43429 | 36185 ft | 439 kts | 204° |
| 2026-04-17 13:50 | 46.51145 | 1.40282 | 36181 ft | 439 kts | 204° |
| 2026-04-17 13:51 | 46.45432 | 1.37145 | 36182 ft | 439 kts | 204° |
| 2026-04-17 13:51 | 46.39714 | 1.34011 | 36186 ft | 439 kts | 205° |
| 2026-04-17 13:52 | 46.33992 | 1.30884 | 36185 ft | 439 kts | 205° |
| 2026-04-17 13:52 | 46.28274 | 1.27765 | 36184 ft | 439 kts | 205° |
| 2026-04-17 13:53 | 46.22557 | 1.24653 | 36183 ft | 439 kts | 205° |
| 2026-04-17 13:53 | 46.16871 | 1.21565 | 36179 ft | 439 kts | 205° |
| 2026-04-17 13:54 | 46.08288 | 1.16917 | 36184 ft | 439 kts | 205° |
| 2026-04-17 13:55 | 46.00677 | 1.12808 | 36184 ft | 439 kts | 205° |
| 2026-04-17 13:56 | 45.89242 | 1.06656 | 36177 ft | 438 kts | 205° |
| 2026-04-17 13:56 | 45.83516 | 1.03577 | 36185 ft | 438 kts | 206° |
| 2026-04-17 13:57 | 45.80926 | 1.01517 | 36167 ft | 427 kts | 222° |
| 2026-04-17 13:57 | 45.78601 | 0.98793 | 36181 ft | 428 kts | 222° |
| 2026-04-17 13:58 | 45.71716 | 0.90708 | 36178 ft | 428 kts | 223° |
| 2026-04-17 13:58 | 45.64859 | 0.82533 | 36174 ft | 428 kts | 223° |
| 2026-04-17 13:59 | 45.58002 | 0.74372 | 36167 ft | 427 kts | 223° |
| 2026-04-17 14:00 | 45.53457 | 0.68979 | 36158 ft | 427 kts | 223° |
| 2026-04-17 14:00 | 45.48878 | 0.63556 | 36161 ft | 427 kts | 223° |
| 2026-04-17 14:01 | 45.44309 | 0.58157 | 36159 ft | 427 kts | 223° |
| 2026-04-17 14:01 | 45.39731 | 0.52759 | 36156 ft | 427 kts | 223° |
| 2026-04-17 14:02 | 45.35158 | 0.47380 | 36167 ft | 426 kts | 223° |
| 2026-04-17 14:02 | 45.30579 | 0.42006 | 36163 ft | 426 kts | 223° |
| 2026-04-17 14:03 | 45.26004 | 0.36645 | 36157 ft | 427 kts | 223° |
| 2026-04-17 14:03 | 45.21452 | 0.31325 | 36154 ft | 426 kts | 223° |
| 2026-04-17 14:04 | 45.16872 | 0.25983 | 36154 ft | 426 kts | 223° |
| 2026-04-17 14:04 | 45.12285 | 0.20644 | 36155 ft | 426 kts | 223° |
| 2026-04-17 14:05 | 45.07703 | 0.15320 | 36150 ft | 426 kts | 223° |
| 2026-04-17 14:05 | 45.03114 | 0.10004 | 36148 ft | 426 kts | 223° |
| 2026-04-17 14:06 | 44.98521 | 0.04694 | 36145 ft | 426 kts | 223° |
| 2026-04-17 14:06 | 44.93928 | -0.00606 | 36146 ft | 426 kts | 222° |
| 2026-04-17 14:07 | 44.89337 | -0.05892 | 36146 ft | 426 kts | 222° |
| 2026-04-17 14:07 | 44.84769 | -0.11141 | 36141 ft | 426 kts | 222° |
| 2026-04-17 14:08 | 44.80169 | -0.16415 | 36137 ft | 426 kts | 222° |
| 2026-04-17 14:08 | 44.75560 | -0.21688 | 36139 ft | 426 kts | 222° |
| 2026-04-17 14:09 | 44.70956 | -0.26944 | 36141 ft | 426 kts | 222° |
| 2026-04-17 14:09 | 44.66342 | -0.32202 | 36139 ft | 426 kts | 222° |
| 2026-04-17 14:10 | 44.61519 | -0.36965 | 36144 ft | 427 kts | 217° |
| 2026-04-17 14:10 | 44.56609 | -0.41681 | 36138 ft | 427 kts | 218° |
| 2026-04-17 14:11 | 44.51718 | -0.46406 | 36130 ft | 427 kts | 218° |
| 2026-04-17 14:11 | 44.46818 | -0.51134 | 36132 ft | 427 kts | 217° |
| 2026-04-17 14:12 | 44.41925 | -0.55847 | 36131 ft | 427 kts | 217° |
| 2026-04-17 14:12 | 44.37025 | -0.60555 | 36130 ft | 427 kts | 217° |
| 2026-04-17 14:13 | 44.29705 | -0.67573 | 36128 ft | 427 kts | 217° |
| 2026-04-17 14:13 | 44.24906 | -0.72425 | 36133 ft | 426 kts | 219° |
| 2026-04-17 14:14 | 44.20122 | -0.77316 | 36134 ft | 426 kts | 219° |
| 2026-04-17 14:14 | 44.15339 | -0.82187 | 36130 ft | 426 kts | 219° |
| 2026-04-17 14:15 | 44.10551 | -0.87051 | 36134 ft | 425 kts | 219° |
| 2026-04-17 14:15 | 44.05758 | -0.91912 | 36134 ft | 426 kts | 219° |
| 2026-04-17 14:16 | 44.01000 | -0.96726 | 36144 ft | 426 kts | 219° |
| 2026-04-17 14:16 | 43.96207 | -1.01566 | 36136 ft | 426 kts | 218° |
| 2026-04-17 14:17 | 43.91416 | -1.06393 | 36136 ft | 425 kts | 218° |
| 2026-04-17 14:17 | 43.86624 | -1.11213 | 36133 ft | 425 kts | 218° |
| 2026-04-17 14:18 | 43.81826 | -1.16029 | 36136 ft | 425 kts | 218° |
| 2026-04-17 14:18 | 43.77060 | -1.20803 | 36129 ft | 425 kts | 218° |
| 2026-04-17 14:19 | 43.72260 | -1.25601 | 36139 ft | 425 kts | 218° |
| 2026-04-17 14:19 | 43.67466 | -1.30383 | 36141 ft | 425 kts | 218° |
| 2026-04-17 14:20 | 43.62672 | -1.35157 | 36136 ft | 425 kts | 218° |
| 2026-04-17 14:20 | 43.57873 | -1.39925 | 36176 ft | 425 kts | 218° |
| 2026-04-17 14:21 | 43.53104 | -1.44656 | 36185 ft | 425 kts | 218° |
| 2026-04-17 14:21 | 43.48280 | -1.49446 | 36181 ft | 424 kts | 220° |
| 2026-04-17 14:22 | 43.46258 | -1.52256 | 36168 ft | 418 kts | 236° |
| 2026-04-17 14:22 | 43.44578 | -1.55597 | 36180 ft | 420 kts | 236° |
| 2026-04-17 14:22 | 43.41289 | -1.62176 | 36186 ft | 420 kts | 237° |
| 2026-04-17 14:23 | 43.38028 | -1.68840 | 36186 ft | 420 kts | 237° |
| 2026-04-17 14:23 | 43.34783 | -1.75511 | 36185 ft | 420 kts | 237° |
| 2026-04-17 14:24 | 43.31533 | -1.82174 | 36184 ft | 420 kts | 235° |
| 2026-04-17 14:24 | 43.27990 | -1.88555 | 36185 ft | 420 kts | 234° |
| 2026-04-17 14:25 | 43.24461 | -1.94950 | 36178 ft | 420 kts | 234° |
| 2026-04-17 14:25 | 43.20934 | -2.01342 | 36176 ft | 420 kts | 234° |
| 2026-04-17 14:26 | 43.17400 | -2.07735 | 36165 ft | 420 kts | 234° |
| 2026-04-17 14:26 | 43.13892 | -2.14068 | 36160 ft | 420 kts | 234° |
| 2026-04-17 14:27 | 43.10358 | -2.20432 | 36157 ft | 420 kts | 233° |
| 2026-04-17 14:27 | 43.06818 | -2.26795 | 36148 ft | 420 kts | 233° |
| 2026-04-17 14:28 | 43.03280 | -2.33140 | 36141 ft | 419 kts | 233° |
| 2026-04-17 14:28 | 42.99732 | -2.39489 | 36133 ft | 420 kts | 233° |
| 2026-04-17 14:29 | 42.96182 | -2.45827 | 36133 ft | 420 kts | 233° |
| 2026-04-17 14:29 | 42.92651 | -2.52119 | 36134 ft | 420 kts | 233° |
| 2026-04-17 14:30 | 42.89096 | -2.58441 | 36127 ft | 420 kts | 233° |
| 2026-04-17 14:30 | 42.85539 | -2.64752 | 36128 ft | 420 kts | 233° |
| 2026-04-17 14:31 | 42.81977 | -2.71059 | 36135 ft | 420 kts | 233° |
| 2026-04-17 14:31 | 42.78412 | -2.77359 | 36136 ft | 420 kts | 233° |
| 2026-04-17 14:32 | 42.74848 | -2.83646 | 36125 ft | 420 kts | 233° |
| 2026-04-17 14:32 | 42.71315 | -2.89974 | 36128 ft | 420 kts | 233° |
| 2026-04-17 14:33 | 42.67796 | -2.96304 | 36123 ft | 420 kts | 233° |
| 2026-04-17 14:33 | 42.64272 | -3.02630 | 36121 ft | 420 kts | 233° |
| 2026-04-17 14:34 | 42.60742 | -3.08950 | 36125 ft | 420 kts | 233° |
| 2026-04-17 14:34 | 42.57214 | -3.15256 | 36129 ft | 420 kts | 233° |
| 2026-04-17 14:35 | 42.53705 | -3.21512 | 36125 ft | 419 kts | 233° |
| 2026-04-17 14:35 | 42.50173 | -3.27799 | 36140 ft | 419 kts | 233° |
| 2026-04-17 14:36 | 42.46626 | -3.34095 | 36154 ft | 419 kts | 233° |
| 2026-04-17 14:36 | 42.43087 | -3.40367 | 36166 ft | 419 kts | 233° |
| 2026-04-17 14:37 | 42.39544 | -3.46633 | 36179 ft | 419 kts | 233° |
| 2026-04-17 14:37 | 42.36025 | -3.52842 | 36186 ft | 418 kts | 233° |
| 2026-04-17 14:38 | 42.32481 | -3.59083 | 36186 ft | 418 kts | 233° |
| 2026-04-17 14:38 | 42.28932 | -3.65320 | 36181 ft | 418 kts | 232° |
| 2026-04-17 14:39 | 42.25381 | -3.71546 | 36184 ft | 418 kts | 232° |
| 2026-04-17 14:39 | 42.21827 | -3.77767 | 36169 ft | 418 kts | 232° |
| 2026-04-17 14:40 | 42.18273 | -3.83972 | 36162 ft | 418 kts | 232° |
| 2026-04-17 14:40 | 42.14711 | -3.90180 | 36146 ft | 418 kts | 232° |
| 2026-04-17 14:41 | 42.11172 | -3.96335 | 36143 ft | 418 kts | 232° |
| 2026-04-17 14:41 | 42.07607 | -4.02525 | 36142 ft | 418 kts | 232° |
| 2026-04-17 14:42 | 42.04039 | -4.08708 | 36148 ft | 418 kts | 232° |
| 2026-04-17 14:42 | 42.00670 | -4.13332 | 36151 ft | 418 kts | 222° |
| 2026-04-17 14:43 | 41.96293 | -4.18499 | 36144 ft | 419 kts | 222° |
| 2026-04-17 14:43 | 41.91185 | -4.24485 | 36143 ft | 419 kts | 222° |
| 2026-04-17 14:44 | 41.87499 | -4.28793 | 36145 ft | 419 kts | 222° |
| 2026-04-17 14:44 | 41.83127 | -4.33893 | 36147 ft | 419 kts | 221° |
| 2026-04-17 14:45 | 41.78714 | -4.39031 | 36147 ft | 420 kts | 221° |
| 2026-04-17 14:45 | 41.74306 | -4.44154 | 36151 ft | 420 kts | 221° |
| 2026-04-17 14:46 | 41.69890 | -4.49276 | 36155 ft | 420 kts | 221° |
| 2026-04-17 14:46 | 41.65467 | -4.54396 | 36151 ft | 420 kts | 221° |
| 2026-04-17 14:47 | 41.61040 | -4.59512 | 36152 ft | 420 kts | 221° |
| 2026-04-17 14:47 | 41.56645 | -4.64581 | 36155 ft | 420 kts | 221° |
| 2026-04-17 14:48 | 41.52220 | -4.69675 | 36155 ft | 420 kts | 221° |
| 2026-04-17 14:48 | 41.47790 | -4.74766 | 36154 ft | 420 kts | 221° |
| 2026-04-17 14:49 | 41.43357 | -4.79850 | 36148 ft | 420 kts | 221° |
| 2026-04-17 14:49 | 41.38925 | -4.84924 | 36144 ft | 420 kts | 221° |
| 2026-04-17 14:50 | 41.34482 | -4.90001 | 36142 ft | 420 kts | 221° |
| 2026-04-17 14:50 | 41.30193 | -4.94895 | 36143 ft | 421 kts | 221° |
| 2026-04-17 14:51 | 41.25777 | -4.99917 | 36136 ft | 420 kts | 221° |
| 2026-04-17 14:51 | 41.21330 | -5.04967 | 36133 ft | 421 kts | 221° |
| 2026-04-17 14:52 | 41.16879 | -5.10011 | 36133 ft | 420 kts | 221° |
| 2026-04-17 14:52 | 41.12418 | -5.15059 | 36134 ft | 421 kts | 221° |
| 2026-04-17 14:53 | 41.07954 | -5.20099 | 36139 ft | 421 kts | 221° |
| 2026-04-17 14:53 | 41.03490 | -5.25131 | 36149 ft | 421 kts | 221° |
| 2026-04-17 14:54 | 40.99019 | -5.30161 | 36146 ft | 421 kts | 220° |
| 2026-04-17 14:54 | 40.94576 | -5.35151 | 36155 ft | 422 kts | 220° |
| 2026-04-17 14:55 | 40.90099 | -5.40170 | 36153 ft | 422 kts | 220° |
| 2026-04-17 14:55 | 40.85620 | -5.45182 | 36155 ft | 422 kts | 220° |
| 2026-04-17 14:56 | 40.81138 | -5.50188 | 36151 ft | 422 kts | 220° |
| 2026-04-17 14:56 | 40.76648 | -5.55194 | 36138 ft | 422 kts | 220° |
| 2026-04-17 14:57 | 40.72161 | -5.60187 | 36136 ft | 422 kts | 220° |
| 2026-04-17 14:57 | 40.67700 | -5.65142 | 36127 ft | 422 kts | 220° |
| 2026-04-17 14:58 | 40.63196 | -5.70136 | 36116 ft | 422 kts | 220° |
| 2026-04-17 14:58 | 40.58693 | -5.75120 | 36116 ft | 423 kts | 220° |
| 2026-04-17 14:59 | 40.54186 | -5.80102 | 36112 ft | 423 kts | 220° |
| 2026-04-17 14:59 | 40.49682 | -5.85067 | 36109 ft | 423 kts | 220° |
| 2026-04-17 15:00 | 40.45201 | -5.90002 | 36111 ft | 423 kts | 220° |
| 2026-04-17 15:00 | 40.40689 | -5.94961 | 36106 ft | 423 kts | 220° |
| 2026-04-17 15:01 | 40.36172 | -5.99916 | 36098 ft | 423 kts | 220° |
| 2026-04-17 15:01 | 40.31653 | -6.04865 | 36094 ft | 423 kts | 220° |
| 2026-04-17 15:02 | 40.27131 | -6.09809 | 36094 ft | 423 kts | 220° |
| 2026-04-17 15:02 | 40.22609 | -6.14744 | 36090 ft | 424 kts | 220° |
| 2026-04-17 15:03 | 40.18069 | -6.19688 | 36079 ft | 424 kts | 220° |
| 2026-04-17 15:03 | 40.13532 | -6.24622 | 36075 ft | 424 kts | 220° |
| 2026-04-17 15:04 | 40.08983 | -6.29560 | 36074 ft | 425 kts | 220° |
| 2026-04-17 15:04 | 40.04468 | -6.34453 | 36071 ft | 425 kts | 220° |
| 2026-04-17 15:05 | 39.99915 | -6.39374 | 36064 ft | 425 kts | 220° |
| 2026-04-17 15:05 | 39.95354 | -6.44296 | 36063 ft | 426 kts | 220° |
| 2026-04-17 15:06 | 39.90780 | -6.49223 | 36059 ft | 426 kts | 220° |
| 2026-04-17 15:06 | 39.86237 | -6.54109 | 36061 ft | 426 kts | 220° |
| 2026-04-17 15:07 | 39.81660 | -6.59023 | 36063 ft | 426 kts | 220° |
| 2026-04-17 15:07 | 39.77082 | -6.63927 | 36061 ft | 426 kts | 220° |
| 2026-04-17 15:08 | 39.72503 | -6.68826 | 36058 ft | 426 kts | 220° |
| 2026-04-17 15:08 | 39.67917 | -6.73722 | 36061 ft | 427 kts | 220° |
| 2026-04-17 15:09 | 39.63325 | -6.78616 | 36058 ft | 427 kts | 220° |
| 2026-04-17 15:09 | 39.58727 | -6.83508 | 36059 ft | 427 kts | 219° |
| 2026-04-17 15:10 | 39.54131 | -6.88389 | 36058 ft | 427 kts | 220° |
| 2026-04-17 15:11 | 39.47219 | -6.95714 | 36055 ft | 428 kts | 219° |
| 2026-04-17 15:11 | 39.42642 | -7.00554 | 36054 ft | 428 kts | 219° |
| 2026-04-17 15:12 | 39.38023 | -7.05429 | 36053 ft | 428 kts | 219° |
| 2026-04-17 15:12 | 39.33407 | -7.10292 | 36053 ft | 428 kts | 219° |
| 2026-04-17 15:13 | 39.28776 | -7.15164 | 36055 ft | 429 kts | 219° |
| 2026-04-17 15:13 | 39.24147 | -7.20026 | 36060 ft | 429 kts | 219° |
| 2026-04-17 15:14 | 39.19385 | -7.24661 | 36068 ft | 429 kts | 217° |
| 2026-04-17 15:14 | 39.14561 | -7.29203 | 36054 ft | 429 kts | 217° |
| 2026-04-17 15:15 | 39.09738 | -7.33757 | 36055 ft | 430 kts | 217° |
| 2026-04-17 15:15 | 39.04944 | -7.38278 | 36053 ft | 430 kts | 217° |
| 2026-04-17 15:16 | 39.00124 | -7.42815 | 36053 ft | 430 kts | 217° |
| 2026-04-17 15:16 | 38.95298 | -7.47350 | 36049 ft | 430 kts | 217° |
| 2026-04-17 15:17 | 38.90463 | -7.51885 | 36051 ft | 430 kts | 217° |
| 2026-04-17 15:17 | 38.85624 | -7.56417 | 36048 ft | 430 kts | 217° |
| 2026-04-17 15:18 | 38.80782 | -7.60944 | 36046 ft | 430 kts | 217° |
| 2026-04-17 15:18 | 38.75940 | -7.65463 | 36049 ft | 431 kts | 217° |
| 2026-04-17 15:19 | 38.71095 | -7.69976 | 36051 ft | 431 kts | 217° |
| 2026-04-17 15:19 | 38.66243 | -7.74489 | 36048 ft | 431 kts | 217° |
| 2026-04-17 15:20 | 38.61382 | -7.79002 | 36048 ft | 431 kts | 217° |
| 2026-04-17 15:20 | 38.56522 | -7.83507 | 36051 ft | 431 kts | 217° |
| 2026-04-17 15:21 | 38.51652 | -7.88013 | 36054 ft | 431 kts | 217° |
| 2026-04-17 15:21 | 38.46822 | -7.92475 | 36049 ft | 432 kts | 217° |
| 2026-04-17 15:22 | 38.41948 | -7.96969 | 36054 ft | 432 kts | 217° |
| 2026-04-17 15:22 | 38.37075 | -8.01456 | 36055 ft | 432 kts | 217° |
| 2026-04-17 15:23 | 38.32197 | -8.05938 | 36054 ft | 432 kts | 217° |
| 2026-04-17 15:23 | 38.27314 | -8.10419 | 36060 ft | 432 kts | 217° |
| 2026-04-17 15:24 | 38.22460 | -8.14864 | 36061 ft | 432 kts | 217° |
| 2026-04-17 15:24 | 38.17567 | -8.19338 | 36062 ft | 433 kts | 217° |
| 2026-04-17 15:25 | 38.12680 | -8.23799 | 36063 ft | 433 kts | 217° |
| 2026-04-17 15:25 | 38.07788 | -8.28258 | 36058 ft | 433 kts | 217° |
| 2026-04-17 15:26 | 38.02886 | -8.32717 | 36056 ft | 433 kts | 217° |
| 2026-04-17 15:26 | 37.98015 | -8.37141 | 36047 ft | 433 kts | 217° |
| 2026-04-17 15:27 | 37.93110 | -8.41588 | 36051 ft | 434 kts | 216° |
| 2026-04-17 15:27 | 37.88193 | -8.46040 | 36385 ft | 434 kts | 217° |
| 2026-04-17 15:27 | 37.85735 | -8.48262 | 36657 ft | 434 kts | 217° |
| 2026-04-17 15:28 | 37.83283 | -8.50477 | 36938 ft | 433 kts | 217° |
| 2026-04-17 15:28 | 37.80826 | -8.52695 | 37217 ft | 433 kts | 217° |
| 2026-04-17 15:28 | 37.78378 | -8.54904 | 37478 ft | 432 kts | 217° |
| 2026-04-17 15:28 | 37.75930 | -8.57110 | 37748 ft | 432 kts | 217° |
| 2026-04-17 15:29 | 37.73484 | -8.59314 | 37974 ft | 431 kts | 217° |
| 2026-04-17 15:29 | 37.71043 | -8.61511 | 38093 ft | 432 kts | 217° |
| 2026-04-17 15:29 | 37.69417 | -8.62973 | 38076 ft | 431 kts | 217° |
| 2026-04-17 15:30 | 37.64441 | -8.67182 | 38074 ft | 430 kts | 214° |
| 2026-04-17 15:30 | 37.59421 | -8.71317 | 38073 ft | 431 kts | 214° |
| 2026-04-17 15:31 | 37.54399 | -8.75461 | 38074 ft | 431 kts | 214° |
| 2026-04-17 15:31 | 37.49415 | -8.79568 | 38075 ft | 431 kts | 214° |
| 2026-04-17 15:32 | 37.44400 | -8.83694 | 38076 ft | 431 kts | 214° |
| 2026-04-17 15:32 | 37.39375 | -8.87821 | 38080 ft | 431 kts | 214° |
| 2026-04-17 15:33 | 37.34351 | -8.91941 | 38079 ft | 431 kts | 214° |
| 2026-04-17 15:33 | 37.29320 | -8.96061 | 38078 ft | 431 kts | 214° |
| 2026-04-17 15:34 | 37.24318 | -9.00149 | 38079 ft | 431 kts | 214° |
| 2026-04-17 15:34 | 37.19277 | -9.04263 | 38078 ft | 432 kts | 214° |
| 2026-04-17 15:35 | 37.14239 | -9.08368 | 38076 ft | 432 kts | 214° |
| 2026-04-17 15:35 | 37.09193 | -9.12473 | 38076 ft | 432 kts | 214° |
| 2026-04-17 15:36 | 37.04143 | -9.16574 | 38077 ft | 432 kts | 214° |
| 2026-04-17 15:36 | 36.99120 | -9.20647 | 38076 ft | 433 kts | 214° |
| 2026-04-17 15:37 | 36.94066 | -9.24738 | 38080 ft | 433 kts | 214° |
| 2026-04-17 15:37 | 36.89011 | -9.28824 | 38079 ft | 433 kts | 214° |
| 2026-04-17 15:38 | 36.83949 | -9.32909 | 38076 ft | 433 kts | 214° |
| 2026-04-17 15:38 | 36.78877 | -9.36995 | 38072 ft | 433 kts | 214° |
| 2026-04-17 15:39 | 36.73807 | -9.41073 | 38075 ft | 434 kts | 214° |
| 2026-04-17 15:39 | 36.68738 | -9.45143 | 38074 ft | 433 kts | 214° |
| 2026-04-17 15:40 | 36.63663 | -9.49213 | 38072 ft | 434 kts | 214° |
| 2026-04-17 15:40 | 36.58617 | -9.53253 | 38073 ft | 434 kts | 214° |
| 2026-04-17 15:41 | 36.53539 | -9.57311 | 38072 ft | 434 kts | 214° |
| 2026-04-17 15:41 | 36.48453 | -9.61370 | 38069 ft | 434 kts | 214° |
| 2026-04-17 15:42 | 36.43372 | -9.65418 | 38068 ft | 434 kts | 214° |
| 2026-04-17 15:42 | 36.38295 | -9.69457 | 38070 ft | 434 kts | 214° |
| 2026-04-17 15:43 | 36.33208 | -9.73497 | 38070 ft | 434 kts | 214° |
| 2026-04-17 15:43 | 36.28121 | -9.77531 | 38068 ft | 434 kts | 214° |
| 2026-04-17 15:44 | 36.23066 | -9.81533 | 38067 ft | 434 kts | 214° |
| 2026-04-17 15:44 | 36.17977 | -9.85556 | 38067 ft | 434 kts | 214° |
| 2026-04-17 15:45 | 36.12880 | -9.89579 | 38067 ft | 434 kts | 214° |
| 2026-04-17 15:45 | 36.07789 | -9.93593 | 38064 ft | 434 kts | 215° |
| 2026-04-17 15:46 | 36.02693 | -9.97604 | 38067 ft | 434 kts | 215° |
| 2026-04-17 15:46 | 35.97589 | -10.01617 | 38067 ft | 434 kts | 216° |
| 2026-04-17 15:47 | 35.92816 | -10.06080 | 38069 ft | 433 kts | 219° |
| 2026-04-17 15:47 | 35.88024 | -10.10559 | 38063 ft | 432 kts | 219° |
| 2026-04-17 15:48 | 35.83219 | -10.15014 | 38064 ft | 432 kts | 219° |
| 2026-04-17 15:48 | 35.78407 | -10.19466 | 38065 ft | 432 kts | 219° |
| 2026-04-17 15:49 | 35.73593 | -10.23912 | 38072 ft | 432 kts | 219° |
| 2026-04-17 15:49 | 35.68779 | -10.28351 | 38066 ft | 432 kts | 219° |
| 2026-04-17 15:50 | 35.63964 | -10.32784 | 38069 ft | 432 kts | 219° |
| 2026-04-17 15:50 | 35.59189 | -10.37174 | 38068 ft | 431 kts | 219° |
| 2026-04-17 15:51 | 35.54380 | -10.41588 | 38067 ft | 431 kts | 219° |
| 2026-04-17 15:51 | 35.49571 | -10.45995 | 38069 ft | 431 kts | 219° |
| 2026-04-17 15:52 | 35.44766 | -10.50393 | 38071 ft | 431 kts | 219° |
| 2026-04-17 15:52 | 35.39964 | -10.54780 | 38068 ft | 431 kts | 219° |
| 2026-04-17 15:53 | 35.35158 | -10.59165 | 38072 ft | 430 kts | 219° |
| 2026-04-17 15:53 | 35.30355 | -10.63540 | 38070 ft | 430 kts | 219° |
| 2026-04-17 15:54 | 35.25552 | -10.67909 | 38069 ft | 430 kts | 219° |
| 2026-04-17 15:54 | 35.20782 | -10.72241 | 38069 ft | 430 kts | 219° |
| 2026-04-17 15:55 | 35.15984 | -10.76592 | 38075 ft | 429 kts | 219° |
| 2026-04-17 15:55 | 35.11178 | -10.80944 | 38076 ft | 429 kts | 219° |
| 2026-04-17 15:56 | 35.06379 | -10.85283 | 38076 ft | 429 kts | 219° |
| 2026-04-17 15:56 | 35.01578 | -10.89617 | 38075 ft | 429 kts | 219° |
| 2026-04-17 15:57 | 34.96785 | -10.93937 | 38071 ft | 428 kts | 219° |
| 2026-04-17 15:57 | 34.91991 | -10.98252 | 38074 ft | 428 kts | 219° |
| 2026-04-17 15:58 | 34.87197 | -11.02561 | 38077 ft | 428 kts | 219° |
| 2026-04-17 15:58 | 34.82430 | -11.06839 | 38071 ft | 427 kts | 219° |
| 2026-04-17 15:59 | 34.77640 | -11.11131 | 38075 ft | 427 kts | 219° |
| 2026-04-17 15:59 | 34.72847 | -11.15420 | 38075 ft | 427 kts | 219° |
| 2026-04-17 16:00 | 34.68066 | -11.19694 | 38072 ft | 426 kts | 219° |
| 2026-04-17 16:00 | 34.63288 | -11.23961 | 38074 ft | 426 kts | 220° |
| 2026-04-17 16:01 | 34.58552 | -11.28216 | 38071 ft | 426 kts | 220° |
| 2026-04-17 16:01 | 34.53785 | -11.32493 | 38077 ft | 425 kts | 220° |
| 2026-04-17 16:02 | 34.49033 | -11.36751 | 38077 ft | 425 kts | 220° |
| 2026-04-17 16:02 | 34.44276 | -11.41006 | 38080 ft | 424 kts | 220° |
| 2026-04-17 16:03 | 34.39515 | -11.45259 | 38078 ft | 425 kts | 220° |
| 2026-04-17 16:03 | 34.34760 | -11.49501 | 38077 ft | 424 kts | 220° |
| 2026-04-17 16:04 | 34.30024 | -11.53718 | 38079 ft | 425 kts | 220° |
| 2026-04-17 16:04 | 34.25263 | -11.57954 | 38079 ft | 424 kts | 220° |
| 2026-04-17 16:05 | 34.20502 | -11.62182 | 38080 ft | 425 kts | 220° |
| 2026-04-17 16:05 | 34.15735 | -11.66410 | 38079 ft | 425 kts | 220° |
| 2026-04-17 16:06 | 34.10968 | -11.70632 | 38080 ft | 425 kts | 220° |
| 2026-04-17 16:06 | 34.06201 | -11.74848 | 38080 ft | 425 kts | 220° |
| 2026-04-17 16:07 | 34.01430 | -11.79061 | 38082 ft | 425 kts | 219° |
| 2026-04-17 16:07 | 33.96684 | -11.83246 | 38081 ft | 425 kts | 220° |
| 2026-04-17 16:08 | 33.91911 | -11.87449 | 38083 ft | 425 kts | 219° |
| 2026-04-17 16:08 | 33.87130 | -11.91653 | 38085 ft | 425 kts | 219° |
| 2026-04-17 16:09 | 33.82379 | -11.95825 | 38084 ft | 425 kts | 219° |
| 2026-04-17 16:09 | 33.77599 | -12.00017 | 38082 ft | 425 kts | 219° |
| 2026-04-17 16:10 | 33.72814 | -12.04206 | 38094 ft | 425 kts | 219° |
| 2026-04-17 16:10 | 33.68028 | -12.08391 | 38091 ft | 425 kts | 219° |
| 2026-04-17 16:11 | 33.63247 | -12.12566 | 38084 ft | 425 kts | 219° |
| 2026-04-17 16:11 | 33.58490 | -12.16714 | 38094 ft | 425 kts | 219° |
| 2026-04-17 16:12 | 33.53705 | -12.20880 | 38082 ft | 425 kts | 219° |
| 2026-04-17 16:12 | 33.48905 | -12.25055 | 38090 ft | 425 kts | 219° |
| 2026-04-17 16:13 | 33.44109 | -12.29218 | 38090 ft | 425 kts | 219° |
| 2026-04-17 16:13 | 33.39317 | -12.33373 | 38075 ft | 425 kts | 219° |
| 2026-04-17 16:14 | 33.32136 | -12.39589 | 38088 ft | 425 kts | 219° |
| 2026-04-17 16:14 | 33.27370 | -12.43707 | 38086 ft | 425 kts | 219° |
| 2026-04-17 16:15 | 33.22576 | -12.47844 | 38083 ft | 425 kts | 219° |
| 2026-04-17 16:15 | 33.17779 | -12.51978 | 38090 ft | 425 kts | 219° |
| 2026-04-17 16:16 | 33.12972 | -12.56114 | 38085 ft | 425 kts | 219° |
| 2026-04-17 16:16 | 33.08175 | -12.60237 | 38088 ft | 425 kts | 219° |
| 2026-04-17 16:17 | 33.03365 | -12.64364 | 38092 ft | 425 kts | 219° |
| 2026-04-17 16:17 | 32.98565 | -12.68478 | 38084 ft | 425 kts | 219° |
| 2026-04-17 16:18 | 32.94571 | -12.71899 | 38084 ft | 426 kts | 219° |
| 2026-04-17 16:18 | 32.89761 | -12.76011 | 38075 ft | 426 kts | 219° |
| 2026-04-17 16:19 | 32.84158 | -12.80785 | 38080 ft | 426 kts | 219° |
| 2026-04-17 16:19 | 32.80114 | -12.84214 | 38084 ft | 426 kts | 219° |
| 2026-04-17 16:20 | 32.75288 | -12.88303 | 38081 ft | 426 kts | 219° |
| 2026-04-17 16:20 | 32.70489 | -12.92363 | 38077 ft | 426 kts | 219° |
| 2026-04-17 16:21 | 32.65658 | -12.96446 | 38079 ft | 426 kts | 219° |
| 2026-04-17 16:21 | 32.60827 | -13.00523 | 38079 ft | 426 kts | 219° |
| 2026-04-17 16:22 | 32.55989 | -13.04601 | 38079 ft | 426 kts | 219° |
| 2026-04-17 16:22 | 32.51157 | -13.08668 | 38079 ft | 426 kts | 219° |
| 2026-04-17 16:23 | 32.46351 | -13.12707 | 38079 ft | 426 kts | 219° |
| 2026-04-17 16:23 | 32.41510 | -13.16770 | 38078 ft | 426 kts | 219° |
| 2026-04-17 16:24 | 32.36665 | -13.20831 | 38076 ft | 426 kts | 219° |
| 2026-04-17 16:24 | 32.31824 | -13.24884 | 38073 ft | 426 kts | 219° |
| 2026-04-17 16:25 | 32.26987 | -13.28928 | 38074 ft | 426 kts | 219° |
| 2026-04-17 16:25 | 32.22139 | -13.32976 | 38074 ft | 426 kts | 219° |
| 2026-04-17 16:26 | 32.17326 | -13.36989 | 38073 ft | 426 kts | 219° |
| 2026-04-17 16:26 | 32.12477 | -13.41027 | 38071 ft | 426 kts | 219° |
| 2026-04-17 16:27 | 32.07633 | -13.45055 | 38073 ft | 426 kts | 219° |
| 2026-04-17 16:27 | 32.02782 | -13.49084 | 38066 ft | 426 kts | 219° |
| 2026-04-17 16:28 | 31.97939 | -13.53101 | 38066 ft | 426 kts | 219° |
| 2026-04-17 16:28 | 31.93095 | -13.57113 | 38065 ft | 426 kts | 219° |
| 2026-04-17 16:29 | 31.88276 | -13.61099 | 38069 ft | 426 kts | 219° |
| 2026-04-17 16:29 | 31.83428 | -13.65104 | 38070 ft | 426 kts | 219° |
| 2026-04-17 16:30 | 31.78574 | -13.69109 | 38067 ft | 426 kts | 219° |
| 2026-04-17 16:30 | 31.73731 | -13.73100 | 38055 ft | 425 kts | 219° |
| 2026-04-17 16:31 | 31.68882 | -13.77091 | 38062 ft | 425 kts | 219° |
| 2026-04-17 16:31 | 31.64024 | -13.81083 | 38068 ft | 426 kts | 219° |
| 2026-04-17 16:32 | 31.59171 | -13.85066 | 38058 ft | 426 kts | 219° |
| 2026-04-17 16:32 | 31.54312 | -13.89049 | 38061 ft | 426 kts | 219° |
| 2026-04-17 16:33 | 31.49482 | -13.93003 | 38065 ft | 426 kts | 219° |
| 2026-04-17 16:33 | 31.44615 | -13.96983 | 38055 ft | 426 kts | 219° |
| 2026-04-17 16:34 | 31.39746 | -14.00959 | 38056 ft | 426 kts | 219° |
| 2026-04-17 16:34 | 31.34880 | -14.04929 | 38047 ft | 426 kts | 219° |
| 2026-04-17 16:35 | 31.30014 | -14.08902 | 38054 ft | 426 kts | 220° |
| 2026-04-17 16:35 | 31.25181 | -14.12861 | 38050 ft | 426 kts | 220° |
| 2026-04-17 16:36 | 31.20317 | -14.16841 | 38052 ft | 426 kts | 220° |
| 2026-04-17 16:36 | 31.15454 | -14.20815 | 38049 ft | 426 kts | 220° |
| 2026-04-17 16:37 | 31.10583 | -14.24790 | 38047 ft | 426 kts | 220° |
| 2026-04-17 16:37 | 31.05720 | -14.28754 | 38044 ft | 426 kts | 220° |
| 2026-04-17 16:38 | 31.00855 | -14.32714 | 38042 ft | 426 kts | 219° |
| 2026-04-17 16:38 | 30.96022 | -14.36644 | 38041 ft | 426 kts | 219° |
| 2026-04-17 16:39 | 30.91152 | -14.40599 | 38045 ft | 426 kts | 219° |
| 2026-04-17 16:39 | 30.85886 | -14.43906 | 38043 ft | 431 kts | 212° |
| 2026-04-17 16:40 | 30.80512 | -14.47031 | 38042 ft | 431 kts | 211° |
| 2026-04-17 16:40 | 30.75137 | -14.50138 | 38037 ft | 431 kts | 211° |
| 2026-04-17 16:41 | 30.69765 | -14.53240 | 38037 ft | 431 kts | 211° |
| 2026-04-17 16:41 | 30.64423 | -14.56319 | 38035 ft | 431 kts | 211° |
| 2026-04-17 16:42 | 30.59039 | -14.59419 | 38035 ft | 431 kts | 211° |
| 2026-04-17 16:42 | 30.53667 | -14.62508 | 38039 ft | 431 kts | 211° |
| 2026-04-17 16:43 | 30.48285 | -14.65599 | 38036 ft | 431 kts | 211° |
| 2026-04-17 16:43 | 30.42904 | -14.68686 | 38034 ft | 431 kts | 211° |
| 2026-04-17 16:44 | 30.37522 | -14.71769 | 38032 ft | 431 kts | 211° |
| 2026-04-17 16:44 | 30.32140 | -14.74849 | 38032 ft | 431 kts | 211° |
| 2026-04-17 16:45 | 30.26795 | -14.77903 | 38032 ft | 431 kts | 211° |
| 2026-04-17 16:45 | 30.21412 | -14.80976 | 38028 ft | 431 kts | 211° |
| 2026-04-17 16:46 | 30.16031 | -14.84043 | 38029 ft | 431 kts | 211° |
| 2026-04-17 16:46 | 30.10654 | -14.87105 | 38028 ft | 431 kts | 211° |
| 2026-04-17 16:47 | 30.05270 | -14.90167 | 38031 ft | 431 kts | 211° |
| 2026-04-17 16:47 | 29.99885 | -14.93226 | 38026 ft | 431 kts | 211° |
| 2026-04-17 16:48 | 29.94499 | -14.96281 | 38025 ft | 431 kts | 211° |
| 2026-04-17 16:48 | 29.89118 | -14.99330 | 38025 ft | 431 kts | 211° |
| 2026-04-17 16:49 | 29.83767 | -15.02359 | 38024 ft | 431 kts | 211° |
| 2026-04-17 16:49 | 29.78380 | -15.05404 | 38022 ft | 431 kts | 211° |
| 2026-04-17 16:50 | 29.72980 | -15.08453 | 38021 ft | 431 kts | 211° |
| 2026-04-17 16:50 | 29.67595 | -15.11490 | 38017 ft | 431 kts | 211° |
| 2026-04-17 16:51 | 29.62203 | -15.14526 | 38016 ft | 431 kts | 211° |
| 2026-04-17 16:51 | 29.56820 | -15.17555 | 38018 ft | 431 kts | 211° |
| 2026-04-17 16:52 | 29.51464 | -15.20565 | 38020 ft | 431 kts | 211° |
| 2026-04-17 16:52 | 29.46076 | -15.23588 | 38013 ft | 431 kts | 211° |
| 2026-04-17 16:53 | 29.40685 | -15.26610 | 38013 ft | 431 kts | 211° |
| 2026-04-17 16:53 | 29.35295 | -15.29628 | 38012 ft | 431 kts | 211° |
| 2026-04-17 16:54 | 29.29902 | -15.32644 | 38011 ft | 431 kts | 211° |
| 2026-04-17 16:54 | 29.24516 | -15.35652 | 38009 ft | 431 kts | 211° |
| 2026-04-17 16:55 | 29.19127 | -15.38659 | 38008 ft | 431 kts | 211° |
| 2026-04-17 16:55 | 29.13766 | -15.41646 | 38006 ft | 431 kts | 211° |
| 2026-04-17 16:56 | 29.08380 | -15.44644 | 38006 ft | 430 kts | 211° |
| 2026-04-17 16:56 | 29.02988 | -15.47642 | 38003 ft | 431 kts | 211° |
| 2026-04-17 16:57 | 28.97603 | -15.50632 | 38004 ft | 430 kts | 211° |
| 2026-04-17 16:57 | 28.92219 | -15.53619 | 38015 ft | 430 kts | 211° |
| 2026-04-17 16:58 | 28.86837 | -15.56600 | 38002 ft | 430 kts | 211° |
| 2026-04-17 16:58 | 28.81454 | -15.59579 | 38011 ft | 429 kts | 211° |
| 2026-04-17 16:59 | 28.76074 | -15.62553 | 38021 ft | 429 kts | 211° |
| 2026-04-17 16:59 | 28.70732 | -15.65502 | 38010 ft | 429 kts | 211° |
| 2026-04-17 17:00 | 28.65349 | -15.68471 | 38013 ft | 429 kts | 211° |
| 2026-04-17 17:00 | 28.59979 | -15.71429 | 38004 ft | 429 kts | 211° |
| 2026-04-17 17:01 | 28.54604 | -15.74385 | 38011 ft | 428 kts | 211° |
| 2026-04-17 17:01 | 28.49230 | -15.77340 | 38002 ft | 428 kts | 211° |
| 2026-04-17 17:02 | 28.43899 | -15.80266 | 38005 ft | 428 kts | 211° |
| 2026-04-17 17:02 | 28.38536 | -15.83207 | 38010 ft | 428 kts | 211° |
| 2026-04-17 17:03 | 28.33174 | -15.86144 | 37997 ft | 428 kts | 211° |
| 2026-04-17 17:03 | 28.27814 | -15.89077 | 37994 ft | 428 kts | 211° |
| 2026-04-17 17:04 | 28.22447 | -15.92009 | 37989 ft | 428 kts | 211° |
| 2026-04-17 17:04 | 28.17089 | -15.94934 | 37994 ft | 427 kts | 211° |
| 2026-04-17 17:05 | 28.12637 | -15.97362 | 37985 ft | 427 kts | 211° |
| 2026-04-17 17:05 | 28.07281 | -16.00279 | 37981 ft | 427 kts | 211° |
| 2026-04-17 17:06 | 28.01927 | -16.03193 | 37986 ft | 427 kts | 211° |
| 2026-04-17 17:06 | 27.96572 | -16.06104 | 37980 ft | 426 kts | 211° |
| 2026-04-17 17:07 | 27.91222 | -16.09010 | 37971 ft | 426 kts | 211° |
| 2026-04-17 17:07 | 27.85907 | -16.11894 | 37969 ft | 426 kts | 210° |
| 2026-04-17 17:08 | 27.80569 | -16.14786 | 37965 ft | 426 kts | 211° |
| 2026-04-17 17:08 | 27.75225 | -16.17679 | 37965 ft | 425 kts | 210° |
| 2026-04-17 17:09 | 27.69885 | -16.20562 | 37964 ft | 426 kts | 210° |
| 2026-04-17 17:09 | 27.64543 | -16.23445 | 37961 ft | 426 kts | 210° |
| 2026-04-17 17:10 | 27.59193 | -16.26331 | 37956 ft | 425 kts | 210° |
| 2026-04-17 17:10 | 27.53852 | -16.29208 | 37958 ft | 425 kts | 210° |
| 2026-04-17 17:11 | 27.48510 | -16.32083 | 37955 ft | 425 kts | 210° |
| 2026-04-17 17:11 | 27.43203 | -16.34935 | 37956 ft | 425 kts | 210° |
| 2026-04-17 17:12 | 27.37865 | -16.37802 | 37953 ft | 425 kts | 210° |
| 2026-04-17 17:12 | 27.32522 | -16.40668 | 37952 ft | 425 kts | 210° |
| 2026-04-17 17:13 | 27.27172 | -16.43535 | 37948 ft | 425 kts | 210° |
| 2026-04-17 17:13 | 27.21830 | -16.46394 | 37950 ft | 425 kts | 210° |
| 2026-04-17 17:14 | 27.16484 | -16.49252 | 37949 ft | 425 kts | 210° |
| 2026-04-17 17:15 | 27.08509 | -16.53511 | 37943 ft | 425 kts | 210° |
| 2026-04-17 17:15 | 27.03168 | -16.56358 | 37944 ft | 425 kts | 210° |
| 2026-04-17 17:16 | 26.97824 | -16.59205 | 37945 ft | 425 kts | 210° |
| 2026-04-17 17:16 | 26.92469 | -16.62055 | 37940 ft | 425 kts | 210° |
| 2026-04-17 17:17 | 26.87152 | -16.64881 | 37937 ft | 425 kts | 210° |
| 2026-04-17 17:17 | 26.81806 | -16.67720 | 37935 ft | 425 kts | 210° |
| 2026-04-17 17:18 | 26.76457 | -16.70558 | 37936 ft | 425 kts | 210° |
| 2026-04-17 17:18 | 26.71104 | -16.73394 | 37932 ft | 425 kts | 210° |
| 2026-04-17 17:19 | 26.65751 | -16.76227 | 37930 ft | 425 kts | 210° |
| 2026-04-17 17:19 | 26.60392 | -16.79061 | 37928 ft | 426 kts | 210° |
| 2026-04-17 17:20 | 26.55067 | -16.81874 | 37931 ft | 425 kts | 210° |
| 2026-04-17 17:20 | 26.49712 | -16.84700 | 37923 ft | 426 kts | 210° |
| 2026-04-17 17:21 | 26.44354 | -16.87525 | 37923 ft | 426 kts | 209° |
| 2026-04-17 17:21 | 26.38998 | -16.90345 | 37924 ft | 426 kts | 209° |
| 2026-04-17 17:22 | 26.33638 | -16.93165 | 37923 ft | 426 kts | 209° |
| 2026-04-17 17:22 | 26.28281 | -16.95980 | 37917 ft | 426 kts | 209° |
| 2026-04-17 17:23 | 26.22918 | -16.98796 | 37915 ft | 426 kts | 209° |
| 2026-04-17 17:23 | 26.17582 | -17.01594 | 37913 ft | 426 kts | 209° |
| 2026-04-17 17:24 | 26.12216 | -17.04406 | 37915 ft | 426 kts | 209° |
| 2026-04-17 17:24 | 26.06855 | -17.07211 | 37910 ft | 426 kts | 209° |
| 2026-04-17 17:25 | 26.01491 | -17.10016 | 37910 ft | 426 kts | 209° |
| 2026-04-17 17:25 | 25.96128 | -17.12817 | 37909 ft | 426 kts | 209° |
| 2026-04-17 17:26 | 25.90766 | -17.15615 | 37902 ft | 426 kts | 209° |
| 2026-04-17 17:26 | 25.85394 | -17.18415 | 37913 ft | 426 kts | 209° |
| 2026-04-17 17:27 | 25.80030 | -17.21208 | 37900 ft | 426 kts | 209° |
| 2026-04-17 17:27 | 25.74698 | -17.23982 | 37894 ft | 426 kts | 209° |
| 2026-04-17 17:28 | 25.69333 | -17.26771 | 37894 ft | 426 kts | 209° |
| 2026-04-17 17:28 | 25.63970 | -17.29555 | 37903 ft | 426 kts | 209° |
| 2026-04-17 17:29 | 25.58605 | -17.32338 | 37894 ft | 426 kts | 209° |
| 2026-04-17 17:29 | 25.53235 | -17.35120 | 37897 ft | 426 kts | 209° |
| 2026-04-17 17:30 | 25.47856 | -17.37905 | 37894 ft | 426 kts | 209° |
| 2026-04-17 17:30 | 25.42480 | -17.40684 | 37897 ft | 426 kts | 209° |
| 2026-04-17 17:31 | 25.37107 | -17.43460 | 37889 ft | 426 kts | 209° |
| 2026-04-17 17:31 | 25.31735 | -17.46233 | 37888 ft | 426 kts | 209° |
| 2026-04-17 17:32 | 25.26391 | -17.48988 | 37888 ft | 426 kts | 209° |
| 2026-04-17 17:32 | 25.21017 | -17.51757 | 37890 ft | 426 kts | 209° |
| 2026-04-17 17:33 | 25.15640 | -17.54524 | 37880 ft | 426 kts | 209° |
| 2026-04-17 17:33 | 25.10262 | -17.57290 | 37887 ft | 426 kts | 209° |
| 2026-04-17 17:34 | 25.04883 | -17.60053 | 37880 ft | 426 kts | 209° |
| 2026-04-17 17:34 | 24.99559 | -17.62902 | 37877 ft | 422 kts | 216° |
| 2026-04-17 17:35 | 24.94562 | -17.66322 | 37881 ft | 422 kts | 216° |
| 2026-04-17 17:35 | 24.89619 | -17.69727 | 37886 ft | 422 kts | 216° |
| 2026-04-17 17:36 | 24.84644 | -17.73158 | 37880 ft | 422 kts | 216° |
| 2026-04-17 17:36 | 24.79667 | -17.76588 | 37884 ft | 422 kts | 216° |
| 2026-04-17 17:37 | 24.74691 | -17.80014 | 37871 ft | 421 kts | 216° |
| 2026-04-17 17:37 | 24.69718 | -17.83433 | 37880 ft | 421 kts | 216° |
| 2026-04-17 17:38 | 24.64771 | -17.86833 | 37874 ft | 421 kts | 216° |
| 2026-04-17 17:38 | 24.59798 | -17.90247 | 37875 ft | 421 kts | 216° |
| 2026-04-17 17:39 | 24.54824 | -17.93658 | 37871 ft | 421 kts | 216° |
| 2026-04-17 17:39 | 24.49852 | -17.97064 | 37873 ft | 421 kts | 217° |
| 2026-04-17 17:40 | 24.44881 | -18.00467 | 37875 ft | 421 kts | 217° |
| 2026-04-17 17:40 | 24.39910 | -18.03866 | 37871 ft | 421 kts | 217° |
| 2026-04-17 17:41 | 24.34934 | -18.07266 | 37869 ft | 421 kts | 217° |
| 2026-04-17 17:41 | 24.29994 | -18.10638 | 37870 ft | 421 kts | 217° |
| 2026-04-17 17:42 | 24.25013 | -18.14035 | 37867 ft | 421 kts | 217° |
| 2026-04-17 17:42 | 24.20041 | -18.17422 | 37872 ft | 421 kts | 217° |
| 2026-04-17 17:43 | 24.15069 | -18.20807 | 37869 ft | 421 kts | 217° |
| 2026-04-17 17:43 | 24.10089 | -18.24194 | 37870 ft | 421 kts | 217° |
| 2026-04-17 17:44 | 24.05108 | -18.27578 | 37871 ft | 421 kts | 217° |
| 2026-04-17 17:44 | 24.00154 | -18.30940 | 37871 ft | 421 kts | 217° |
| 2026-04-17 17:45 | 23.95167 | -18.34322 | 37869 ft | 421 kts | 217° |
| 2026-04-17 17:45 | 23.90182 | -18.37700 | 37876 ft | 421 kts | 217° |
| 2026-04-17 17:46 | 23.85190 | -18.41079 | 37883 ft | 421 kts | 217° |
| 2026-04-17 17:46 | 23.80218 | -18.44441 | 37884 ft | 421 kts | 217° |
| 2026-04-17 17:47 | 23.75269 | -18.47785 | 37875 ft | 421 kts | 217° |
| 2026-04-17 17:47 | 23.70293 | -18.51145 | 37879 ft | 421 kts | 217° |
| 2026-04-17 17:48 | 23.65310 | -18.54505 | 37876 ft | 421 kts | 217° |
| 2026-04-17 17:48 | 23.60328 | -18.57863 | 37884 ft | 420 kts | 217° |
| 2026-04-17 17:49 | 23.55353 | -18.61212 | 37879 ft | 420 kts | 217° |
| 2026-04-17 17:49 | 23.50379 | -18.64558 | 37881 ft | 420 kts | 217° |
| 2026-04-17 17:50 | 23.45407 | -18.67899 | 37880 ft | 420 kts | 217° |
| 2026-04-17 17:50 | 23.40430 | -18.71240 | 37882 ft | 420 kts | 217° |
| 2026-04-17 17:51 | 23.35464 | -18.74572 | 37882 ft | 419 kts | 218° |
| 2026-04-17 17:51 | 23.30526 | -18.77881 | 37883 ft | 419 kts | 218° |
| 2026-04-17 17:52 | 23.25558 | -18.81208 | 37886 ft | 419 kts | 218° |
| 2026-04-17 17:52 | 23.21399 | -18.83991 | 37885 ft | 418 kts | 218° |
| 2026-04-17 17:53 | 23.16472 | -18.87285 | 37887 ft | 418 kts | 218° |
| 2026-04-17 17:53 | 23.11510 | -18.90600 | 37887 ft | 418 kts | 218° |
| 2026-04-17 17:54 | 23.06553 | -18.93908 | 37889 ft | 418 kts | 218° |
| 2026-04-17 17:54 | 23.01599 | -18.97211 | 37890 ft | 418 kts | 218° |
| 2026-04-17 17:55 | 22.96646 | -19.00511 | 37890 ft | 417 kts | 218° |
| 2026-04-17 17:55 | 22.91726 | -19.03786 | 37888 ft | 417 kts | 218° |
| 2026-04-17 17:56 | 22.86781 | -19.07074 | 37889 ft | 417 kts | 218° |
| 2026-04-17 17:56 | 22.81841 | -19.10357 | 37892 ft | 416 kts | 218° |
| 2026-04-17 17:57 | 22.76900 | -19.13637 | 37894 ft | 416 kts | 218° |
| 2026-04-17 17:57 | 22.71968 | -19.16909 | 37896 ft | 416 kts | 219° |
| 2026-04-17 17:58 | 22.67033 | -19.20179 | 37897 ft | 415 kts | 219° |
| 2026-04-17 17:58 | 22.62137 | -19.23422 | 37895 ft | 415 kts | 219° |
| 2026-04-17 17:59 | 22.57216 | -19.26678 | 37891 ft | 415 kts | 219° |
| 2026-04-17 17:59 | 22.52293 | -19.29932 | 37891 ft | 414 kts | 219° |
| 2026-04-17 18:00 | 22.47373 | -19.33182 | 37891 ft | 414 kts | 219° |
| 2026-04-17 18:00 | 22.42452 | -19.36430 | 37895 ft | 414 kts | 219° |
| 2026-04-17 18:01 | 22.37546 | -19.39665 | 37894 ft | 413 kts | 219° |
| 2026-04-17 18:01 | 22.32674 | -19.42875 | 37892 ft | 413 kts | 219° |
| 2026-04-17 18:02 | 22.27774 | -19.46102 | 37898 ft | 412 kts | 219° |
| 2026-04-17 18:02 | 22.22872 | -19.49327 | 37896 ft | 412 kts | 219° |
| 2026-04-17 18:03 | 22.17965 | -19.52553 | 37895 ft | 412 kts | 219° |
| 2026-04-17 18:03 | 22.13068 | -19.55769 | 37893 ft | 412 kts | 220° |
| 2026-04-17 18:04 | 22.08207 | -19.58958 | 37895 ft | 411 kts | 220° |
| 2026-04-17 18:04 | 22.03320 | -19.62159 | 37893 ft | 411 kts | 220° |
| 2026-04-17 18:05 | 21.98433 | -19.65360 | 37896 ft | 410 kts | 220° |
| 2026-04-17 18:05 | 21.93554 | -19.68553 | 37901 ft | 410 kts | 220° |
| 2026-04-17 18:06 | 21.88675 | -19.71744 | 37903 ft | 410 kts | 220° |
| 2026-04-17 18:06 | 21.83790 | -19.74936 | 37904 ft | 410 kts | 220° |
| 2026-04-17 18:07 | 21.78912 | -19.78120 | 37900 ft | 409 kts | 220° |
| 2026-04-17 18:07 | 21.74039 | -19.81299 | 37909 ft | 409 kts | 220° |
| 2026-04-17 18:08 | 21.69196 | -19.84456 | 37908 ft | 409 kts | 220° |
| 2026-04-17 18:08 | 21.64327 | -19.87627 | 37905 ft | 409 kts | 220° |
| 2026-04-17 18:09 | 21.59457 | -19.90796 | 37903 ft | 409 kts | 221° |
| 2026-04-17 18:09 | 21.54594 | -19.93958 | 37898 ft | 409 kts | 221° |
| 2026-04-17 18:10 | 21.49726 | -19.97121 | 37903 ft | 408 kts | 221° |
| 2026-04-17 18:10 | 21.44863 | -20.00278 | 37901 ft | 408 kts | 221° |
| 2026-04-17 18:11 | 21.40006 | -20.03429 | 37901 ft | 408 kts | 221° |
| 2026-04-17 18:11 | 21.35150 | -20.06577 | 37905 ft | 407 kts | 221° |
| 2026-04-17 18:12 | 21.30332 | -20.09697 | 37903 ft | 407 kts | 221° |
| 2026-04-17 18:12 | 21.25480 | -20.12838 | 37905 ft | 407 kts | 221° |
| 2026-04-17 18:13 | 21.20629 | -20.15975 | 37905 ft | 407 kts | 221° |
| 2026-04-17 18:13 | 21.15778 | -20.19109 | 37906 ft | 407 kts | 221° |
| 2026-04-17 18:14 | 21.10925 | -20.22243 | 37904 ft | 407 kts | 222° |
| 2026-04-17 18:14 | 21.06071 | -20.25374 | 37910 ft | 407 kts | 222° |
| 2026-04-17 18:15 | 21.01260 | -20.28476 | 37903 ft | 406 kts | 222° |
| 2026-04-17 18:15 | 20.96419 | -20.31595 | 37905 ft | 406 kts | 222° |
| 2026-04-17 18:16 | 20.91569 | -20.34717 | 37906 ft | 406 kts | 222° |
| 2026-04-17 18:16 | 20.86726 | -20.37832 | 37905 ft | 406 kts | 222° |
| 2026-04-17 18:17 | 20.81886 | -20.40943 | 37907 ft | 406 kts | 222° |
| 2026-04-17 18:17 | 20.74626 | -20.45605 | 37907 ft | 406 kts | 222° |
| 2026-04-17 18:18 | 20.69813 | -20.48692 | 37905 ft | 405 kts | 222° |
| 2026-04-17 18:18 | 20.64978 | -20.51792 | 37914 ft | 405 kts | 223° |
| 2026-04-17 18:19 | 20.60142 | -20.54889 | 37907 ft | 405 kts | 223° |
| 2026-04-17 18:19 | 20.55297 | -20.57990 | 37906 ft | 405 kts | 223° |
| 2026-04-17 18:20 | 20.50483 | -20.61070 | 37904 ft | 405 kts | 223° |
| 2026-04-17 18:20 | 20.45653 | -20.64157 | 37912 ft | 405 kts | 223° |
| 2026-04-17 18:21 | 20.40813 | -20.67249 | 37907 ft | 405 kts | 223° |
| 2026-04-17 18:21 | 20.35977 | -20.70332 | 37907 ft | 405 kts | 223° |
| 2026-04-17 18:22 | 20.31141 | -20.73408 | 37910 ft | 405 kts | 223° |
| 2026-04-17 18:22 | 20.26303 | -20.76484 | 37907 ft | 405 kts | 223° |
| 2026-04-17 18:23 | 20.21501 | -20.79535 | 37909 ft | 405 kts | 223° |
| 2026-04-17 18:23 | 20.16644 | -20.82576 | 37904 ft | 411 kts | 218° |
| 2026-04-17 18:24 | 20.11226 | -20.84849 | 37907 ft | 418 kts | 215° |
| 2026-04-17 18:24 | 20.05858 | -20.87218 | 37907 ft | 417 kts | 215° |
| 2026-04-17 18:25 | 20.00503 | -20.89616 | 37907 ft | 417 kts | 216° |
| 2026-04-17 18:25 | 19.95153 | -20.92014 | 37910 ft | 417 kts | 216° |
| 2026-04-17 18:26 | 19.89799 | -20.94412 | 37910 ft | 417 kts | 216° |
| 2026-04-17 18:26 | 19.84475 | -20.96796 | 37910 ft | 417 kts | 216° |
| 2026-04-17 18:27 | 19.79118 | -20.99193 | 37912 ft | 417 kts | 216° |
| 2026-04-17 18:27 | 19.73760 | -21.01588 | 37913 ft | 418 kts | 216° |
| 2026-04-17 18:28 | 19.68402 | -21.03982 | 37914 ft | 418 kts | 216° |
| 2026-04-17 18:28 | 19.63068 | -21.06363 | 37910 ft | 418 kts | 215° |
| 2026-04-17 18:29 | 19.57698 | -21.08758 | 37910 ft | 419 kts | 215° |
| 2026-04-17 18:29 | 19.52327 | -21.11152 | 37906 ft | 419 kts | 215° |
| 2026-04-17 18:30 | 19.46948 | -21.13548 | 37909 ft | 419 kts | 215° |
| 2026-04-17 18:30 | 19.41563 | -21.15945 | 37910 ft | 419 kts | 215° |
| 2026-04-17 18:31 | 19.36182 | -21.18338 | 37914 ft | 420 kts | 215° |
| 2026-04-17 18:31 | 19.30787 | -21.20736 | 37913 ft | 420 kts | 215° |
| 2026-04-17 18:32 | 19.25434 | -21.23114 | 37916 ft | 420 kts | 215° |
| 2026-04-17 18:32 | 19.20038 | -21.25509 | 37914 ft | 421 kts | 215° |
| 2026-04-17 18:33 | 19.14634 | -21.27905 | 37917 ft | 421 kts | 215° |
| 2026-04-17 18:33 | 19.09220 | -21.30305 | 37911 ft | 422 kts | 215° |
| 2026-04-17 18:34 | 19.03809 | -21.32702 | 37915 ft | 422 kts | 215° |
| 2026-04-17 18:34 | 18.98388 | -21.35101 | 37915 ft | 422 kts | 215° |
| 2026-04-17 18:35 | 18.92961 | -21.37501 | 37913 ft | 423 kts | 215° |
| 2026-04-17 18:35 | 18.87534 | -21.39899 | 37915 ft | 423 kts | 215° |
| 2026-04-17 18:36 | 18.82102 | -21.42298 | 37913 ft | 423 kts | 215° |
| 2026-04-17 18:36 | 18.76694 | -21.44685 | 37915 ft | 424 kts | 214° |
| 2026-04-17 18:37 | 18.71249 | -21.47086 | 37917 ft | 424 kts | 214° |
| 2026-04-17 18:37 | 18.65802 | -21.49487 | 37911 ft | 424 kts | 214° |
| 2026-04-17 18:38 | 18.60351 | -21.51888 | 37914 ft | 424 kts | 214° |
| 2026-04-17 18:38 | 18.54923 | -21.54276 | 37910 ft | 424 kts | 214° |
| 2026-04-17 18:39 | 18.49465 | -21.56677 | 37914 ft | 425 kts | 214° |
| 2026-04-17 18:39 | 18.44008 | -21.59075 | 37918 ft | 425 kts | 214° |
| 2026-04-17 18:40 | 18.39468 | -21.61069 | 37909 ft | 425 kts | 214° |
| 2026-04-17 18:40 | 18.34004 | -21.63467 | 37912 ft | 425 kts | 214° |
| 2026-04-17 18:41 | 18.28544 | -21.65862 | 37914 ft | 425 kts | 214° |
| 2026-04-17 18:41 | 18.23065 | -21.68264 | 37906 ft | 426 kts | 214° |
| 2026-04-17 18:42 | 18.17597 | -21.70659 | 37913 ft | 426 kts | 214° |
| 2026-04-17 18:42 | 18.12118 | -21.73057 | 37917 ft | 426 kts | 214° |
| 2026-04-17 18:43 | 18.06675 | -21.75439 | 37914 ft | 426 kts | 214° |
| 2026-04-17 18:43 | 18.03950 | -21.76629 | 37437 ft | 422 kts | 214° |
| 2026-04-17 18:43 | 18.01226 | -21.77820 | 36661 ft | 424 kts | 214° |
| 2026-04-17 18:44 | 17.98499 | -21.79012 | 35963 ft | 425 kts | 214° |
| 2026-04-17 18:44 | 17.95761 | -21.80208 | 35251 ft | 426 kts | 214° |
| 2026-04-17 18:44 | 17.93017 | -21.81406 | 34520 ft | 428 kts | 213° |
| 2026-04-17 18:44 | 17.90260 | -21.82609 | 33749 ft | 430 kts | 213° |
| 2026-04-17 18:45 | 17.87492 | -21.83817 | 32906 ft | 433 kts | 213° |
| 2026-04-17 18:45 | 17.84707 | -21.85031 | 32242 ft | 431 kts | 213° |
| 2026-04-17 18:45 | 17.81947 | -21.86234 | 31723 ft | 427 kts | 213° |
| 2026-04-17 18:45 | 17.79221 | -21.87423 | 31182 ft | 422 kts | 213° |
| 2026-04-17 18:46 | 17.76502 | -21.88609 | 30606 ft | 425 kts | 213° |
| 2026-04-17 18:46 | 17.73798 | -21.89786 | 30030 ft | 427 kts | 213° |
| 2026-04-17 18:46 | 17.71038 | -21.90987 | 29368 ft | 428 kts | 212° |
| 2026-04-17 18:46 | 17.68299 | -21.92179 | 28780 ft | 425 kts | 212° |
| 2026-04-17 18:47 | 17.65582 | -21.93368 | 28222 ft | 420 kts | 212° |
| 2026-04-17 18:47 | 17.62915 | -21.94584 | 27586 ft | 417 kts | 212° |
| 2026-04-17 18:47 | 17.60265 | -21.95789 | 27064 ft | 412 kts | 211° |
| 2026-04-17 18:47 | 17.57640 | -21.96980 | 26539 ft | 408 kts | 211° |
| 2026-04-17 18:48 | 17.55044 | -21.98157 | 26014 ft | 405 kts | 211° |
| 2026-04-17 18:48 | 17.52499 | -21.99311 | 25492 ft | 402 kts | 210° |
| 2026-04-17 18:48 | 17.49934 | -22.00474 | 24977 ft | 399 kts | 210° |
| 2026-04-17 18:48 | 17.47397 | -22.01623 | 24459 ft | 397 kts | 209° |
| 2026-04-17 18:49 | 17.44869 | -22.02768 | 23946 ft | 394 kts | 209° |
| 2026-04-17 18:49 | 17.42360 | -22.03904 | 23430 ft | 392 kts | 208° |
| 2026-04-17 18:49 | 17.39865 | -22.05034 | 22846 ft | 389 kts | 208° |
| 2026-04-17 18:49 | 17.37394 | -22.06152 | 22332 ft | 385 kts | 208° |
| 2026-04-17 18:50 | 17.34949 | -22.07258 | 21846 ft | 380 kts | 208° |
| 2026-04-17 18:50 | 17.32534 | -22.08350 | 21393 ft | 375 kts | 208° |
| 2026-04-17 18:50 | 17.30179 | -22.09415 | 20941 ft | 371 kts | 207° |
| 2026-04-17 18:50 | 17.27819 | -22.10481 | 20497 ft | 367 kts | 207° |
| 2026-04-17 18:51 | 17.25485 | -22.11536 | 20060 ft | 364 kts | 207° |
| 2026-04-17 18:51 | 17.23175 | -22.12580 | 19629 ft | 360 kts | 207° |
| 2026-04-17 18:51 | 17.20881 | -22.13615 | 19205 ft | 357 kts | 207° |
| 2026-04-17 18:51 | 17.18607 | -22.14642 | 18789 ft | 354 kts | 207° |
| 2026-04-17 18:52 | 17.16353 | -22.15659 | 18382 ft | 351 kts | 206° |
| 2026-04-17 18:52 | 17.14118 | -22.16668 | 17937 ft | 348 kts | 206° |
| 2026-04-17 18:52 | 17.11902 | -22.17667 | 17506 ft | 345 kts | 206° |
| 2026-04-17 18:52 | 17.09706 | -22.18658 | 17091 ft | 341 kts | 206° |
| 2026-04-17 18:53 | 17.07568 | -22.19622 | 16712 ft | 337 kts | 206° |
| 2026-04-17 18:53 | 17.05421 | -22.20590 | 16333 ft | 334 kts | 206° |
| 2026-04-17 18:53 | 17.03301 | -22.21545 | 15951 ft | 330 kts | 205° |
| 2026-04-17 18:53 | 17.01202 | -22.22491 | 15578 ft | 327 kts | 205° |
| 2026-04-17 18:54 | 16.99118 | -22.23429 | 15206 ft | 326 kts | 205° |
| 2026-04-17 18:54 | 16.97019 | -22.24374 | 14822 ft | 330 kts | 205° |
| 2026-04-17 18:54 | 16.94894 | -22.25331 | 14430 ft | 334 kts | 205° |
| 2026-04-17 18:54 | 16.92751 | -22.26295 | 14054 ft | 334 kts | 204° |
| 2026-04-17 18:55 | 16.90616 | -22.27256 | 13672 ft | 334 kts | 204° |
| 2026-04-17 18:55 | 16.88486 | -22.28214 | 13238 ft | 333 kts | 204° |
| 2026-04-17 18:55 | 16.86367 | -22.29168 | 12839 ft | 330 kts | 204° |
| 2026-04-17 18:55 | 16.84268 | -22.30112 | 12453 ft | 326 kts | 204° |
| 2026-04-17 18:56 | 16.82192 | -22.31045 | 12078 ft | 323 kts | 203° |
| 2026-04-17 18:56 | 16.80137 | -22.31968 | 11707 ft | 320 kts | 203° |
| 2026-04-17 18:56 | 16.78102 | -22.32883 | 11329 ft | 317 kts | 203° |
| 2026-04-17 18:56 | 16.76108 | -22.33778 | 10975 ft | 315 kts | 203° |
| 2026-04-17 18:57 | 16.74125 | -22.34669 | 10812 ft | 306 kts | 202° |
| 2026-04-17 18:57 | 16.72202 | -22.35533 | 10656 ft | 297 kts | 202° |
| 2026-04-17 18:57 | 16.70332 | -22.36373 | 10517 ft | 288 kts | 202° |
| 2026-04-17 18:57 | 16.68535 | -22.37179 | 10373 ft | 273 kts | 202° |
| 2026-04-17 18:58 | 16.66831 | -22.37944 | 10250 ft | 261 kts | 202° |
| 2026-04-17 18:58 | 16.65182 | -22.38684 | 10125 ft | 255 kts | 202° |
| 2026-04-17 18:58 | 16.63533 | -22.39423 | 9950 ft | 263 kts | 202° |
| 2026-04-17 18:58 | 16.61833 | -22.40185 | 9642 ft | 268 kts | 202° |
| 2026-04-17 18:59 | 16.60118 | -22.40955 | 9340 ft | 269 kts | 202° |
| 2026-04-17 18:59 | 16.58391 | -22.41729 | 9059 ft | 270 kts | 202° |
| 2026-04-17 18:59 | 16.56663 | -22.42504 | 8775 ft | 271 kts | 202° |
| 2026-04-17 18:59 | 16.54953 | -22.43270 | 8490 ft | 271 kts | 203° |
| 2026-04-17 19:00 | 16.53198 | -22.44057 | 8188 ft | 271 kts | 203° |
| 2026-04-17 19:00 | 16.51486 | -22.44824 | 7903 ft | 271 kts | 203° |
| 2026-04-17 19:00 | 16.49754 | -22.45599 | 7610 ft | 270 kts | 203° |
| 2026-04-17 19:00 | 16.48037 | -22.46368 | 7318 ft | 268 kts | 204° |
| 2026-04-17 19:01 | 16.46332 | -22.47131 | 7034 ft | 266 kts | 204° |
| 2026-04-17 19:01 | 16.44636 | -22.47890 | 6782 ft | 264 kts | 204° |
| 2026-04-17 19:01 | 16.42959 | -22.48640 | 6533 ft | 261 kts | 204° |
| 2026-04-17 19:01 | 16.41292 | -22.49386 | 6262 ft | 259 kts | 204° |
| 2026-04-17 19:02 | 16.39642 | -22.50126 | 5979 ft | 258 kts | 204° |
| 2026-04-17 19:02 | 16.37988 | -22.50865 | 5698 ft | 261 kts | 204° |
| 2026-04-17 19:02 | 16.36305 | -22.51618 | 5406 ft | 266 kts | 205° |
| 2026-04-17 19:02 | 16.34594 | -22.52383 | 5112 ft | 269 kts | 205° |
| 2026-04-17 19:03 | 16.32872 | -22.53152 | 4817 ft | 269 kts | 205° |
| 2026-04-17 19:03 | 16.31161 | -22.53917 | 4517 ft | 267 kts | 205° |
| 2026-04-17 19:03 | 16.29457 | -22.54679 | 4227 ft | 266 kts | 206° |
| 2026-04-17 19:03 | 16.27795 | -22.55506 | 3996 ft | 261 kts | 216° |
| 2026-04-17 19:04 | 16.26340 | -22.56636 | 3963 ft | 263 kts | 220° |
| 2026-04-17 19:04 | 16.24904 | -22.57782 | 3913 ft | 264 kts | 219° |
| 2026-04-17 19:04 | 16.23444 | -22.58940 | 3871 ft | 264 kts | 220° |
| 2026-04-17 19:04 | 16.21984 | -22.60096 | 3822 ft | 264 kts | 219° |
| 2026-04-17 19:05 | 16.20529 | -22.61246 | 3788 ft | 260 kts | 219° |
| 2026-04-17 19:05 | 16.19144 | -22.62338 | 3748 ft | 239 kts | 220° |
| 2026-04-17 19:05 | 16.17875 | -22.63340 | 3720 ft | 222 kts | 220° |
| 2026-04-17 19:05 | 16.16648 | -22.64310 | 3687 ft | 221 kts | 220° |
| 2026-04-17 19:06 | 16.15421 | -22.65280 | 3650 ft | 222 kts | 220° |
| 2026-04-17 19:06 | 16.14194 | -22.66248 | 3606 ft | 222 kts | 220° |
| 2026-04-17 19:06 | 16.12967 | -22.67216 | 3571 ft | 221 kts | 220° |
| 2026-04-17 19:06 | 16.11735 | -22.68187 | 3536 ft | 222 kts | 220° |
| 2026-04-17 19:07 | 16.10504 | -22.69159 | 3487 ft | 222 kts | 219° |
| 2026-04-17 19:07 | 16.09274 | -22.70128 | 3460 ft | 222 kts | 220° |
| 2026-04-17 19:07 | 16.08044 | -22.71097 | 3430 ft | 222 kts | 220° |
| 2026-04-17 19:07 | 16.06815 | -22.72067 | 3435 ft | 221 kts | 220° |
| 2026-04-17 19:08 | 16.05591 | -22.73032 | 3392 ft | 221 kts | 219° |
| 2026-04-17 19:08 | 16.04368 | -22.73997 | 3348 ft | 221 kts | 220° |
| 2026-04-17 19:08 | 16.03142 | -22.74964 | 3304 ft | 221 kts | 219° |
| 2026-04-17 19:08 | 16.01917 | -22.75930 | 3250 ft | 221 kts | 219° |
| 2026-04-17 19:09 | 16.00707 | -22.76881 | 3202 ft | 221 kts | 220° |
| 2026-04-17 19:09 | 15.99478 | -22.77848 | 3177 ft | 221 kts | 220° |
| 2026-04-17 19:09 | 15.98250 | -22.78816 | 3151 ft | 222 kts | 219° |
| 2026-04-17 19:09 | 15.97020 | -22.79785 | 3117 ft | 221 kts | 220° |
| 2026-04-17 19:10 | 15.95810 | -22.80738 | 3074 ft | 213 kts | 219° |
| 2026-04-17 19:10 | 15.94659 | -22.81643 | 3032 ft | 204 kts | 220° |
| 2026-04-17 19:10 | 15.93536 | -22.82527 | 3000 ft | 201 kts | 220° |
| 2026-04-17 19:10 | 15.92424 | -22.83401 | 2966 ft | 201 kts | 220° |
| 2026-04-17 19:11 | 15.91312 | -22.84279 | 2930 ft | 201 kts | 221° |
| 2026-04-17 19:11 | 15.90499 | -22.85377 | 2845 ft | 187 kts | 257° |
| 2026-04-17 19:11 | 15.90449 | -22.86666 | 2816 ft | 176 kts | 286° |
| 2026-04-17 19:11 | 15.90739 | -22.87910 | 2860 ft | 178 kts | 288° |
| 2026-04-17 19:12 | 15.91049 | -22.89147 | 2841 ft | 176 kts | 288° |
| 2026-04-17 19:12 | 15.91366 | -22.90349 | 2811 ft | 169 kts | 289° |
| 2026-04-17 19:12 | 15.91679 | -22.91507 | 2745 ft | 165 kts | 290° |
| 2026-04-17 19:12 | 15.91991 | -22.92634 | 2779 ft | 165 kts | 290° |
| 2026-04-17 19:13 | 15.92359 | -22.93764 | 2735 ft | 163 kts | 303° |
| 2026-04-17 19:13 | 15.93146 | -22.94513 | 2568 ft | 151 kts | 339° |
| 2026-04-17 19:13 | 15.94149 | -22.94658 | 2500 ft | 145 kts | 7° |
| 2026-04-17 19:13 | 15.95141 | -22.94450 | 2526 ft | 147 kts | 12° |
| 2026-04-17 19:14 | 15.96150 | -22.94252 | 2519 ft | 148 kts | 8° |
| 2026-04-17 19:14 | 15.97157 | -22.94057 | 2532 ft | 147 kts | 11° |
| 2026-04-17 19:14 | 15.98147 | -22.93804 | 2496 ft | 147 kts | 13° |
| 2026-04-17 19:14 | 15.99133 | -22.93518 | 2496 ft | 148 kts | 15° |
| 2026-04-17 19:15 | 16.00122 | -22.93210 | 2489 ft | 148 kts | 15° |
| 2026-04-17 19:15 | 16.01111 | -22.92897 | 2412 ft | 149 kts | 17° |
| 2026-04-17 19:15 | 16.02097 | -22.92583 | 2218 ft | 146 kts | 15° |
| 2026-04-17 19:15 | 16.03050 | -22.92278 | 2057 ft | 145 kts | 17° |
| 2026-04-17 19:16 | 16.03998 | -22.91974 | 1866 ft | 138 kts | 17° |
| 2026-04-17 19:16 | 16.04878 | -22.91692 | 1686 ft | 126 kts | 17° |
| 2026-04-17 19:16 | 16.05697 | -22.91430 | 1581 ft | 124 kts | 17° |
| 2026-04-17 19:16 | 16.06505 | -22.91161 | 1530 ft | 121 kts | 17° |
| 2026-04-17 19:17 | 16.07303 | -22.90872 | 1433 ft | 122 kts | 17° |
| 2026-04-17 19:17 | 16.08104 | -22.90588 | 1176 ft | 121 kts | 16° |
| 2026-04-17 19:17 | 16.08915 | -22.90349 | 907 ft | 119 kts | 17° |
| 2026-04-17 19:17 | 16.09707 | -22.90099 | 727 ft | 120 kts | 17° |
| 2026-04-17 19:18 | 16.10511 | -22.89849 | 573 ft | 121 kts | 17° |
| 2026-04-17 19:18 | 16.11314 | -22.89601 | 426 ft | 121 kts | 19° |
| 2026-04-17 19:18 | 16.12121 | -22.89345 | 244 ft | 121 kts | 16° |
| 2026-04-17 19:18 | 16.12929 | -22.89104 | 96 ft | 119 kts | 17° |
| 2026-04-17 19:19 | 16.13633 | -22.88891 | 83 ft | 82 kts | 19° |
| 2026-04-17 19:19 | 16.13944 | -22.88793 | 91 ft | 15 kts | 16° |
| 2026-04-17 19:19 | 16.13977 | -22.88782 | 90 ft | 11 kts | 17° |
| 2026-04-17 19:19 | 16.14092 | -22.88746 | 92 ft | 21 kts | 20° |
| 2026-04-17 19:20 | 16.14252 | -22.88697 | 96 ft | 28 kts | 8° |
| 2026-04-17 19:20 | 16.14460 | -22.88639 | 98 ft | 29 kts | 19° |
| 2026-04-17 19:20 | 16.14620 | -22.88618 | 101 ft | 18 kts | 37° |
| 2026-04-17 19:20 | 16.14607 | -22.88573 | 101 ft | 4 kts | 176° |
| 2026-04-17 19:21 | 16.14572 | -22.88590 | 100 ft | 13 kts | 210° |
| 2026-04-17 19:21 | 16.14382 | -22.88659 | 96 ft | 42 kts | 199° |
| 2026-04-17 19:21 | 16.14094 | -22.88748 | 93 ft | 38 kts | 195° |
| 2026-04-17 19:21 | 16.13854 | -22.88822 | 89 ft | 35 kts | 197° |
| 2026-04-17 19:22 | 16.13653 | -22.88882 | 86 ft | 26 kts | 197° |
| 2026-04-17 19:22 | 16.13614 | -22.88974 | 83 ft | 15 kts | 285° |
| 2026-04-17 19:22 | 16.13638 | -22.89059 | 72 ft | 8 kts | 285° |
| 2026-04-17 19:22 | 16.13645 | -22.89087 | 72 ft | 0 kts | 286° |